HAL201 PHKO-KLAX
Flight info
| Callsign | HAL201 |
|---|---|
| Flight time | 5h 44m |
| Altitude | 35000 |
| Route | KOA V5 MYNAH V11 UPP CLUTS R465 CIVIT R585 GITLE/N0454F370 ADUMM GALIP R585 AUDIA SNAXX RYDRR2 |
| Aircraft | A21N/M-SDE2E3FGHIRWXY/LB1 |
Departure
| Time | 2026-04-25 12:24 |
|---|---|
| Airport | Ellison Onizuka Kona International Airport at Keāhole (PHKO) |
Arrival
| Time | 2026-04-25 18:08 |
|---|---|
| Airport | Los Angeles International Airport (KLAX) |
| Time | Latitude | Longitude | Altitude | Speed | Heading |
|---|---|---|---|---|---|
| 2026-04-25 12:08 | 19.72508 | -156.04308 | 49 ft | 0 kts | 182° |
| 2026-04-25 12:13 | 19.72509 | -156.04308 | 49 ft | 1 kts | 182° |
| 2026-04-25 12:13 | 19.72540 | -156.04307 | 48 ft | 5 kts | 183° |
| 2026-04-25 12:14 | 19.72574 | -156.04304 | 48 ft | 5 kts | 188° |
| 2026-04-25 12:14 | 19.72595 | -156.04297 | 53 ft | 2 kts | 224° |
| 2026-04-25 12:14 | 19.72600 | -156.04287 | 54 ft | 2 kts | 266° |
| 2026-04-25 12:14 | 19.72599 | -156.04276 | 54 ft | 2 kts | 277° |
| 2026-04-25 12:15 | 19.72599 | -156.04270 | 55 ft | 1 kts | 278° |
| 2026-04-25 12:15 | 19.72600 | -156.04283 | 54 ft | 0 kts | 278° |
| 2026-04-25 12:17 | 19.72602 | -156.04296 | 53 ft | 6 kts | 278° |
| 2026-04-25 12:17 | 19.72625 | -156.04360 | 49 ft | 12 kts | 299° |
| 2026-04-25 12:17 | 19.72685 | -156.04413 | 50 ft | 11 kts | 352° |
| 2026-04-25 12:18 | 19.72760 | -156.04409 | 50 ft | 12 kts | 6° |
| 2026-04-25 12:18 | 19.72875 | -156.04399 | 51 ft | 22 kts | 5° |
| 2026-04-25 12:18 | 19.73067 | -156.04381 | 53 ft | 31 kts | 4° |
| 2026-04-25 12:18 | 19.73276 | -156.04363 | 54 ft | 29 kts | 4° |
| 2026-04-25 12:19 | 19.73618 | -156.04330 | 48 ft | 29 kts | 6° |
| 2026-04-25 12:19 | 19.73885 | -156.04307 | 45 ft | 28 kts | 4° |
| 2026-04-25 12:19 | 19.74073 | -156.04290 | 46 ft | 27 kts | 5° |
| 2026-04-25 12:20 | 19.74251 | -156.04276 | 48 ft | 25 kts | 4° |
| 2026-04-25 12:20 | 19.74410 | -156.04263 | 52 ft | 21 kts | 5° |
| 2026-04-25 12:20 | 19.74552 | -156.04250 | 53 ft | 20 kts | 5° |
| 2026-04-25 12:20 | 19.74686 | -156.04237 | 53 ft | 19 kts | 5° |
| 2026-04-25 12:21 | 19.74809 | -156.04224 | 52 ft | 17 kts | 5° |
| 2026-04-25 12:21 | 19.74933 | -156.04213 | 53 ft | 22 kts | 4° |
| 2026-04-25 12:21 | 19.75116 | -156.04197 | 51 ft | 31 kts | 5° |
| 2026-04-25 12:21 | 19.75311 | -156.04181 | 49 ft | 23 kts | 353° |
| 2026-04-25 12:22 | 19.75412 | -156.04269 | 46 ft | 19 kts | 309° |
| 2026-04-25 12:22 | 19.75414 | -156.04378 | 45 ft | 14 kts | 225° |
| 2026-04-25 12:22 | 19.75336 | -156.04432 | 45 ft | 15 kts | 196° |
| 2026-04-25 12:22 | 19.75182 | -156.04451 | 50 ft | 36 kts | 185° |
| 2026-04-25 12:23 | 19.74751 | -156.04487 | 51 ft | 87 kts | 184° |
| 2026-04-25 12:23 | 19.73967 | -156.04550 | 48 ft | 143 kts | 184° |
| 2026-04-25 12:23 | 19.72812 | -156.04644 | 208 ft | 182 kts | 184° |
| 2026-04-25 12:23 | 19.71603 | -156.05196 | 479 ft | 206 kts | 228° |
| 2026-04-25 12:24 | 19.71138 | -156.06528 | 1329 ft | 189 kts | 277° |
| 2026-04-25 12:24 | 19.71688 | -156.07721 | 2085 ft | 186 kts | 316° |
| 2026-04-25 12:24 | 19.72692 | -156.08720 | 2394 ft | 211 kts | 315° |
| 2026-04-25 12:24 | 19.73691 | -156.10009 | 2590 ft | 244 kts | 304° |
| 2026-04-25 12:25 | 19.74568 | -156.11649 | 3084 ft | 262 kts | 298° |
| 2026-04-25 12:25 | 19.75638 | -156.13221 | 3914 ft | 266 kts | 318° |
| 2026-04-25 12:25 | 19.77196 | -156.14263 | 4789 ft | 268 kts | 343° |
| 2026-04-25 12:25 | 19.78990 | -156.14732 | 5623 ft | 269 kts | 353° |
| 2026-04-25 12:26 | 19.80831 | -156.14753 | 6237 ft | 264 kts | 14° |
| 2026-04-25 12:26 | 19.82574 | -156.14144 | 6675 ft | 266 kts | 26° |
| 2026-04-25 12:26 | 19.84206 | -156.13176 | 7085 ft | 272 kts | 34° |
| 2026-04-25 12:26 | 19.85751 | -156.12005 | 7569 ft | 275 kts | 37° |
| 2026-04-25 12:27 | 19.87266 | -156.10733 | 8023 ft | 279 kts | 38° |
| 2026-04-25 12:27 | 19.88781 | -156.09428 | 8510 ft | 282 kts | 38° |
| 2026-04-25 12:27 | 19.90321 | -156.08114 | 8954 ft | 286 kts | 36° |
| 2026-04-25 12:27 | 19.91898 | -156.06800 | 9414 ft | 289 kts | 36° |
| 2026-04-25 12:28 | 19.93484 | -156.05508 | 9863 ft | 293 kts | 34° |
| 2026-04-25 12:28 | 19.95124 | -156.04189 | 10219 ft | 299 kts | 35° |
| 2026-04-25 12:28 | 19.96822 | -156.02839 | 10424 ft | 311 kts | 34° |
| 2026-04-25 12:28 | 19.98589 | -156.01442 | 10621 ft | 322 kts | 35° |
| 2026-04-25 12:29 | 20.00418 | -155.99994 | 10800 ft | 333 kts | 35° |
| 2026-04-25 12:29 | 20.02299 | -155.98498 | 10981 ft | 343 kts | 35° |
| 2026-04-25 12:29 | 20.04237 | -155.96956 | 11147 ft | 353 kts | 35° |
| 2026-04-25 12:29 | 20.06202 | -155.95390 | 11304 ft | 361 kts | 35° |
| 2026-04-25 12:30 | 20.08232 | -155.93769 | 11454 ft | 369 kts | 36° |
| 2026-04-25 12:30 | 20.10301 | -155.92118 | 11606 ft | 376 kts | 35° |
| 2026-04-25 12:30 | 20.12409 | -155.90436 | 11743 ft | 382 kts | 36° |
| 2026-04-25 12:30 | 20.14548 | -155.88729 | 11931 ft | 386 kts | 36° |
| 2026-04-25 12:31 | 20.16699 | -155.87012 | 12169 ft | 388 kts | 36° |
| 2026-04-25 12:31 | 20.18901 | -155.85344 | 12418 ft | 389 kts | 31° |
| 2026-04-25 12:31 | 20.21284 | -155.83974 | 12685 ft | 390 kts | 25° |
| 2026-04-25 12:31 | 20.23752 | -155.82781 | 12958 ft | 390 kts | 22° |
| 2026-04-25 12:32 | 20.26233 | -155.81686 | 13197 ft | 392 kts | 21° |
| 2026-04-25 12:32 | 20.28769 | -155.80624 | 13457 ft | 393 kts | 20° |
| 2026-04-25 12:32 | 20.31321 | -155.79581 | 13697 ft | 394 kts | 20° |
| 2026-04-25 12:32 | 20.33885 | -155.78538 | 13908 ft | 395 kts | 20° |
| 2026-04-25 12:33 | 20.36456 | -155.77488 | 14122 ft | 397 kts | 20° |
| 2026-04-25 12:33 | 20.39032 | -155.76428 | 14327 ft | 397 kts | 21° |
| 2026-04-25 12:33 | 20.41617 | -155.75358 | 14506 ft | 399 kts | 20° |
| 2026-04-25 12:33 | 20.44175 | -155.74294 | 14706 ft | 400 kts | 21° |
| 2026-04-25 12:34 | 20.46768 | -155.73213 | 14924 ft | 400 kts | 21° |
| 2026-04-25 12:34 | 20.49365 | -155.72129 | 15101 ft | 402 kts | 21° |
| 2026-04-25 12:34 | 20.51975 | -155.71039 | 15263 ft | 404 kts | 21° |
| 2026-04-25 12:34 | 20.53706 | -155.70316 | 15401 ft | 404 kts | 21° |
| 2026-04-25 12:35 | 20.57216 | -155.68850 | 15648 ft | 405 kts | 21° |
| 2026-04-25 12:35 | 20.59844 | -155.67753 | 15807 ft | 406 kts | 21° |
| 2026-04-25 12:35 | 20.62478 | -155.66653 | 15967 ft | 408 kts | 21° |
| 2026-04-25 12:35 | 20.65123 | -155.65547 | 16175 ft | 407 kts | 21° |
| 2026-04-25 12:36 | 20.67728 | -155.64459 | 16367 ft | 407 kts | 21° |
| 2026-04-25 12:36 | 20.70365 | -155.63357 | 16509 ft | 409 kts | 21° |
| 2026-04-25 12:36 | 20.73019 | -155.62247 | 16668 ft | 409 kts | 21° |
| 2026-04-25 12:36 | 20.75675 | -155.61135 | 16808 ft | 410 kts | 21° |
| 2026-04-25 12:37 | 20.78341 | -155.60018 | 16914 ft | 412 kts | 21° |
| 2026-04-25 12:37 | 20.81009 | -155.58900 | 17061 ft | 413 kts | 21° |
| 2026-04-25 12:37 | 20.83683 | -155.57779 | 17206 ft | 413 kts | 21° |
| 2026-04-25 12:37 | 20.86362 | -155.56654 | 17314 ft | 414 kts | 21° |
| 2026-04-25 12:38 | 20.89009 | -155.55543 | 17414 ft | 415 kts | 21° |
| 2026-04-25 12:38 | 20.91691 | -155.54418 | 17537 ft | 415 kts | 21° |
| 2026-04-25 12:38 | 20.94383 | -155.53288 | 17683 ft | 414 kts | 21° |
| 2026-04-25 12:38 | 20.97073 | -155.52160 | 17756 ft | 416 kts | 21° |
| 2026-04-25 12:39 | 20.99764 | -155.51030 | 17840 ft | 417 kts | 21° |
| 2026-04-25 12:39 | 21.02460 | -155.49896 | 17980 ft | 416 kts | 21° |
| 2026-04-25 12:39 | 21.05164 | -155.48759 | 18048 ft | 417 kts | 21° |
| 2026-04-25 12:39 | 21.07864 | -155.47625 | 18088 ft | 419 kts | 21° |
| 2026-04-25 12:40 | 21.09659 | -155.46869 | 18149 ft | 419 kts | 21° |
| 2026-04-25 12:40 | 21.13252 | -155.45357 | 18252 ft | 419 kts | 21° |
| 2026-04-25 12:40 | 21.15969 | -155.44213 | 18314 ft | 419 kts | 21° |
| 2026-04-25 12:40 | 21.18686 | -155.43069 | 18379 ft | 420 kts | 21° |
| 2026-04-25 12:41 | 21.21401 | -155.41925 | 18441 ft | 420 kts | 21° |
| 2026-04-25 12:41 | 21.24127 | -155.40776 | 18486 ft | 420 kts | 21° |
| 2026-04-25 12:41 | 21.26848 | -155.39628 | 18548 ft | 420 kts | 21° |
| 2026-04-25 12:41 | 21.29572 | -155.38478 | 18584 ft | 421 kts | 21° |
| 2026-04-25 12:42 | 21.32294 | -155.37328 | 18651 ft | 421 kts | 21° |
| 2026-04-25 12:42 | 21.34101 | -155.36565 | 18651 ft | 422 kts | 21° |
| 2026-04-25 12:42 | 21.37722 | -155.35036 | 18699 ft | 422 kts | 21° |
| 2026-04-25 12:42 | 21.40456 | -155.33882 | 18749 ft | 422 kts | 21° |
| 2026-04-25 12:43 | 21.43190 | -155.32727 | 18800 ft | 422 kts | 21° |
| 2026-04-25 12:43 | 21.45924 | -155.31570 | 18842 ft | 422 kts | 21° |
| 2026-04-25 12:43 | 21.51398 | -155.29253 | 18922 ft | 423 kts | 21° |
| 2026-04-25 12:44 | 21.54131 | -155.28094 | 18965 ft | 422 kts | 21° |
| 2026-04-25 12:44 | 21.56829 | -155.26950 | 18980 ft | 423 kts | 21° |
| 2026-04-25 12:44 | 21.62307 | -155.24631 | 19049 ft | 423 kts | 21° |
| 2026-04-25 12:45 | 21.65043 | -155.23472 | 19090 ft | 423 kts | 21° |
| 2026-04-25 12:45 | 21.67788 | -155.22308 | 19108 ft | 423 kts | 21° |
| 2026-04-25 12:45 | 21.73268 | -155.19983 | 19151 ft | 424 kts | 21° |
| 2026-04-25 12:46 | 21.76016 | -155.18815 | 19183 ft | 424 kts | 21° |
| 2026-04-25 12:46 | 21.78725 | -155.17663 | 19190 ft | 424 kts | 22° |
| 2026-04-25 12:46 | 21.81468 | -155.16494 | 19220 ft | 424 kts | 22° |
| 2026-04-25 12:46 | 21.84212 | -155.15328 | 19243 ft | 424 kts | 21° |
| 2026-04-25 12:47 | 21.86954 | -155.14163 | 19308 ft | 423 kts | 21° |
| 2026-04-25 12:47 | 21.89696 | -155.12996 | 19324 ft | 424 kts | 22° |
| 2026-04-25 12:47 | 21.92442 | -155.11826 | 19329 ft | 424 kts | 22° |
| 2026-04-25 12:47 | 21.95188 | -155.10656 | 19338 ft | 425 kts | 22° |
| 2026-04-25 12:48 | 21.97932 | -155.09487 | 19361 ft | 425 kts | 22° |
| 2026-04-25 12:48 | 22.00650 | -155.08328 | 19354 ft | 426 kts | 22° |
| 2026-04-25 12:48 | 22.03404 | -155.07150 | 19366 ft | 426 kts | 22° |
| 2026-04-25 12:48 | 22.06154 | -155.05974 | 19380 ft | 426 kts | 22° |
| 2026-04-25 12:49 | 22.08903 | -155.04800 | 19428 ft | 425 kts | 22° |
| 2026-04-25 12:49 | 22.11659 | -155.03621 | 19436 ft | 426 kts | 22° |
| 2026-04-25 12:49 | 22.14411 | -155.02444 | 19466 ft | 425 kts | 22° |
| 2026-04-25 12:49 | 22.17158 | -155.01272 | 19506 ft | 425 kts | 22° |
| 2026-04-25 12:50 | 22.18978 | -155.00494 | 19523 ft | 424 kts | 22° |
| 2026-04-25 12:50 | 22.22623 | -154.98936 | 19523 ft | 425 kts | 22° |
| 2026-04-25 12:50 | 22.25371 | -154.97759 | 19516 ft | 426 kts | 22° |
| 2026-04-25 12:50 | 22.28132 | -154.96578 | 19492 ft | 427 kts | 22° |
| 2026-04-25 12:51 | 22.30888 | -154.95396 | 19537 ft | 426 kts | 22° |
| 2026-04-25 12:51 | 22.33645 | -154.94214 | 19549 ft | 426 kts | 22° |
| 2026-04-25 12:51 | 22.36402 | -154.93032 | 19557 ft | 426 kts | 22° |
| 2026-04-25 12:51 | 22.39162 | -154.91848 | 19538 ft | 427 kts | 22° |
| 2026-04-25 12:52 | 22.41915 | -154.90667 | 19567 ft | 427 kts | 22° |
| 2026-04-25 12:52 | 22.44641 | -154.89497 | 19589 ft | 426 kts | 22° |
| 2026-04-25 12:52 | 22.47398 | -154.88313 | 19607 ft | 426 kts | 22° |
| 2026-04-25 12:52 | 22.50145 | -154.87133 | 19623 ft | 426 kts | 22° |
| 2026-04-25 12:53 | 22.52903 | -154.85946 | 19619 ft | 427 kts | 22° |
| 2026-04-25 12:53 | 22.55658 | -154.84761 | 19648 ft | 426 kts | 22° |
| 2026-04-25 12:53 | 22.58418 | -154.83574 | 19628 ft | 427 kts | 22° |
| 2026-04-25 12:53 | 22.61178 | -154.82387 | 19622 ft | 427 kts | 22° |
| 2026-04-25 12:54 | 22.63931 | -154.81205 | 19645 ft | 427 kts | 22° |
| 2026-04-25 12:54 | 22.66692 | -154.80017 | 19671 ft | 426 kts | 22° |
| 2026-04-25 12:54 | 22.69144 | -154.78960 | 19675 ft | 426 kts | 22° |
| 2026-04-25 12:54 | 22.71963 | -154.77745 | 19660 ft | 427 kts | 22° |
| 2026-04-25 12:55 | 22.74721 | -154.76556 | 19697 ft | 426 kts | 22° |
| 2026-04-25 12:55 | 22.76579 | -154.75755 | 19725 ft | 426 kts | 22° |
| 2026-04-25 12:55 | 22.80233 | -154.74178 | 19728 ft | 426 kts | 22° |
| 2026-04-25 12:55 | 22.82987 | -154.72989 | 19712 ft | 427 kts | 22° |
| 2026-04-25 12:56 | 22.85742 | -154.71798 | 19726 ft | 427 kts | 22° |
| 2026-04-25 12:56 | 22.88502 | -154.70604 | 20277 ft | 430 kts | 21° |
| 2026-04-25 12:56 | 22.91308 | -154.69391 | 20357 ft | 438 kts | 21° |
| 2026-04-25 12:56 | 22.94101 | -154.68180 | 20759 ft | 437 kts | 22° |
| 2026-04-25 12:57 | 22.96847 | -154.66770 | 21144 ft | 437 kts | 29° |
| 2026-04-25 12:57 | 22.99401 | -154.64972 | 21478 ft | 439 kts | 37° |
| 2026-04-25 12:57 | 23.01666 | -154.62745 | 21784 ft | 441 kts | 47° |
| 2026-04-25 12:57 | 23.03611 | -154.60158 | 22090 ft | 443 kts | 53° |
| 2026-04-25 12:58 | 23.05408 | -154.57427 | 22402 ft | 445 kts | 56° |
| 2026-04-25 12:58 | 23.07126 | -154.54628 | 22696 ft | 447 kts | 57° |
| 2026-04-25 12:58 | 23.08822 | -154.51779 | 22993 ft | 449 kts | 57° |
| 2026-04-25 12:58 | 23.10515 | -154.48917 | 23291 ft | 451 kts | 57° |
| 2026-04-25 12:59 | 23.12198 | -154.46085 | 23584 ft | 453 kts | 57° |
| 2026-04-25 12:59 | 23.13921 | -154.43209 | 23881 ft | 455 kts | 57° |
| 2026-04-25 12:59 | 23.15659 | -154.40327 | 24177 ft | 457 kts | 56° |
| 2026-04-25 12:59 | 23.17412 | -154.37433 | 24459 ft | 459 kts | 56° |
| 2026-04-25 13:00 | 23.18578 | -154.35512 | 24632 ft | 460 kts | 56° |
| 2026-04-25 13:00 | 23.19772 | -154.33547 | 24816 ft | 462 kts | 56° |
| 2026-04-25 13:00 | 23.22721 | -154.28693 | 25231 ft | 465 kts | 56° |
| 2026-04-25 13:00 | 23.24480 | -154.25793 | 25465 ft | 466 kts | 56° |
| 2026-04-25 13:01 | 23.26265 | -154.22849 | 25757 ft | 466 kts | 56° |
| 2026-04-25 13:01 | 23.28044 | -154.19913 | 26088 ft | 465 kts | 56° |
| 2026-04-25 13:01 | 23.29823 | -154.16973 | 26392 ft | 464 kts | 56° |
| 2026-04-25 13:01 | 23.31596 | -154.14043 | 26665 ft | 464 kts | 56° |
| 2026-04-25 13:02 | 23.33367 | -154.11114 | 26934 ft | 463 kts | 56° |
| 2026-04-25 13:02 | 23.35134 | -154.08188 | 27198 ft | 463 kts | 56° |
| 2026-04-25 13:02 | 23.36900 | -154.05265 | 27443 ft | 462 kts | 56° |
| 2026-04-25 13:02 | 23.38665 | -154.02339 | 27702 ft | 462 kts | 56° |
| 2026-04-25 13:03 | 23.40427 | -153.99418 | 27951 ft | 461 kts | 57° |
| 2026-04-25 13:03 | 23.42162 | -153.96540 | 28196 ft | 461 kts | 57° |
| 2026-04-25 13:03 | 23.43920 | -153.93623 | 28447 ft | 460 kts | 57° |
| 2026-04-25 13:03 | 23.45675 | -153.90708 | 28697 ft | 460 kts | 57° |
| 2026-04-25 13:04 | 23.47425 | -153.87799 | 28950 ft | 459 kts | 57° |
| 2026-04-25 13:04 | 23.49177 | -153.84887 | 29191 ft | 459 kts | 57° |
| 2026-04-25 13:04 | 23.50923 | -153.81982 | 29449 ft | 458 kts | 57° |
| 2026-04-25 13:04 | 23.52670 | -153.79074 | 29704 ft | 458 kts | 57° |
| 2026-04-25 13:05 | 23.54412 | -153.76172 | 29956 ft | 457 kts | 57° |
| 2026-04-25 13:05 | 23.56152 | -153.73272 | 30207 ft | 457 kts | 57° |
| 2026-04-25 13:05 | 23.57867 | -153.70414 | 30454 ft | 457 kts | 57° |
| 2026-04-25 13:05 | 23.59602 | -153.67518 | 30703 ft | 456 kts | 57° |
| 2026-04-25 13:06 | 23.61337 | -153.64622 | 30951 ft | 456 kts | 57° |
| 2026-04-25 13:06 | 23.63068 | -153.61732 | 31196 ft | 455 kts | 57° |
| 2026-04-25 13:06 | 23.64796 | -153.58842 | 31444 ft | 455 kts | 57° |
| 2026-04-25 13:06 | 23.66522 | -153.55957 | 31670 ft | 454 kts | 57° |
| 2026-04-25 13:07 | 23.68246 | -153.53072 | 31893 ft | 454 kts | 57° |
| 2026-04-25 13:07 | 23.69946 | -153.50226 | 32122 ft | 453 kts | 57° |
| 2026-04-25 13:07 | 23.71665 | -153.47347 | 32315 ft | 453 kts | 57° |
| 2026-04-25 13:07 | 23.73382 | -153.44470 | 32519 ft | 453 kts | 57° |
| 2026-04-25 13:08 | 23.75100 | -153.41589 | 32699 ft | 452 kts | 57° |
| 2026-04-25 13:08 | 23.76812 | -153.38716 | 32911 ft | 452 kts | 57° |
| 2026-04-25 13:08 | 23.78525 | -153.35841 | 33081 ft | 452 kts | 57° |
| 2026-04-25 13:08 | 23.80241 | -153.32969 | 33246 ft | 451 kts | 57° |
| 2026-04-25 13:09 | 23.81957 | -153.30101 | 33423 ft | 451 kts | 57° |
| 2026-04-25 13:09 | 23.83673 | -153.27234 | 33580 ft | 451 kts | 57° |
| 2026-04-25 13:09 | 23.85362 | -153.24412 | 33732 ft | 450 kts | 57° |
| 2026-04-25 13:09 | 23.87076 | -153.21546 | 33888 ft | 450 kts | 57° |
| 2026-04-25 13:10 | 23.88785 | -153.18686 | 34027 ft | 450 kts | 57° |
| 2026-04-25 13:10 | 23.90497 | -153.15820 | 34179 ft | 450 kts | 57° |
| 2026-04-25 13:10 | 23.92201 | -153.12964 | 34320 ft | 449 kts | 57° |
| 2026-04-25 13:10 | 23.93908 | -153.10102 | 34448 ft | 449 kts | 57° |
| 2026-04-25 13:11 | 23.95613 | -153.07240 | 34592 ft | 449 kts | 57° |
| 2026-04-25 13:11 | 23.97291 | -153.04423 | 34711 ft | 448 kts | 57° |
| 2026-04-25 13:11 | 23.98992 | -153.01566 | 34834 ft | 448 kts | 57° |
| 2026-04-25 13:11 | 24.00693 | -152.98706 | 34955 ft | 448 kts | 57° |
| 2026-04-25 13:12 | 24.04091 | -152.92989 | 35129 ft | 449 kts | 57° |
| 2026-04-25 13:12 | 24.06923 | -152.88221 | 35273 ft | 450 kts | 57° |
| 2026-04-25 13:13 | 24.10909 | -152.81499 | 35444 ft | 451 kts | 57° |
| 2026-04-25 13:13 | 24.14301 | -152.75773 | 35590 ft | 452 kts | 57° |
| 2026-04-25 13:14 | 24.17721 | -152.69993 | 35732 ft | 453 kts | 57° |
| 2026-04-25 13:14 | 24.21143 | -152.64203 | 35848 ft | 453 kts | 57° |
| 2026-04-25 13:15 | 24.24568 | -152.58400 | 35994 ft | 454 kts | 57° |
| 2026-04-25 13:15 | 24.27998 | -152.52582 | 36105 ft | 455 kts | 57° |
| 2026-04-25 13:16 | 24.31411 | -152.46786 | 36223 ft | 456 kts | 57° |
| 2026-04-25 13:16 | 24.34849 | -152.40941 | 36339 ft | 457 kts | 57° |
| 2026-04-25 13:17 | 24.38293 | -152.35079 | 36424 ft | 457 kts | 57° |
| 2026-04-25 13:17 | 24.41739 | -152.29207 | 36521 ft | 458 kts | 57° |
| 2026-04-25 13:18 | 24.45166 | -152.23359 | 36615 ft | 459 kts | 57° |
| 2026-04-25 13:18 | 24.48617 | -152.17464 | 36702 ft | 460 kts | 57° |
| 2026-04-25 13:19 | 24.52073 | -152.11551 | 36787 ft | 460 kts | 57° |
| 2026-04-25 13:19 | 24.54388 | -152.07588 | 36843 ft | 461 kts | 57° |
| 2026-04-25 13:20 | 24.58992 | -151.99697 | 36946 ft | 462 kts | 57° |
| 2026-04-25 13:20 | 24.62434 | -151.93787 | 36999 ft | 463 kts | 57° |
| 2026-04-25 13:21 | 24.65907 | -151.87818 | 37000 ft | 464 kts | 57° |
| 2026-04-25 13:21 | 24.69382 | -151.81838 | 37000 ft | 464 kts | 57° |
| 2026-04-25 13:22 | 24.72849 | -151.75864 | 37000 ft | 463 kts | 57° |
| 2026-04-25 13:23 | 24.78025 | -151.66931 | 37000 ft | 463 kts | 57° |
| 2026-04-25 13:23 | 24.81486 | -151.60949 | 37000 ft | 463 kts | 57° |
| 2026-04-25 13:24 | 24.84947 | -151.54961 | 37000 ft | 463 kts | 57° |
| 2026-04-25 13:24 | 24.88403 | -151.48971 | 37000 ft | 463 kts | 57° |
| 2026-04-25 13:25 | 24.91835 | -151.43017 | 37000 ft | 463 kts | 57° |
| 2026-04-25 13:25 | 24.95288 | -151.37019 | 37000 ft | 463 kts | 57° |
| 2026-04-25 13:26 | 24.98735 | -151.31024 | 37000 ft | 463 kts | 57° |
| 2026-04-25 13:26 | 25.02183 | -151.25019 | 37000 ft | 463 kts | 57° |
| 2026-04-25 13:27 | 25.05603 | -151.19056 | 37000 ft | 463 kts | 57° |
| 2026-04-25 13:27 | 25.09045 | -151.13047 | 37000 ft | 463 kts | 57° |
| 2026-04-25 13:28 | 25.12484 | -151.07036 | 37000 ft | 463 kts | 57° |
| 2026-04-25 13:28 | 25.15919 | -151.01023 | 37000 ft | 463 kts | 58° |
| 2026-04-25 13:29 | 25.19329 | -150.95048 | 37000 ft | 463 kts | 58° |
| 2026-04-25 13:29 | 25.22759 | -150.89029 | 37000 ft | 463 kts | 58° |
| 2026-04-25 13:30 | 25.27900 | -150.79993 | 37000 ft | 463 kts | 58° |
| 2026-04-25 13:31 | 25.33013 | -150.70990 | 37000 ft | 463 kts | 58° |
| 2026-04-25 13:31 | 25.36429 | -150.64964 | 37000 ft | 463 kts | 58° |
| 2026-04-25 13:32 | 25.39849 | -150.58926 | 37000 ft | 463 kts | 58° |
| 2026-04-25 13:32 | 25.43261 | -150.52893 | 37000 ft | 463 kts | 58° |
| 2026-04-25 13:33 | 25.46674 | -150.46850 | 37000 ft | 463 kts | 58° |
| 2026-04-25 13:33 | 25.50060 | -150.40848 | 37000 ft | 463 kts | 58° |
| 2026-04-25 13:34 | 25.53468 | -150.34798 | 37000 ft | 463 kts | 58° |
| 2026-04-25 13:34 | 25.56871 | -150.28748 | 37000 ft | 463 kts | 58° |
| 2026-04-25 13:35 | 25.60272 | -150.22696 | 37000 ft | 463 kts | 58° |
| 2026-04-25 13:35 | 25.63645 | -150.16685 | 37000 ft | 463 kts | 58° |
| 2026-04-25 13:36 | 25.67041 | -150.10625 | 37000 ft | 463 kts | 58° |
| 2026-04-25 13:36 | 25.70435 | -150.04562 | 37000 ft | 463 kts | 58° |
| 2026-04-25 13:37 | 25.73823 | -149.98501 | 37000 ft | 463 kts | 58° |
| 2026-04-25 13:37 | 25.77189 | -149.92471 | 37000 ft | 463 kts | 58° |
| 2026-04-25 13:38 | 25.80573 | -149.86401 | 37000 ft | 463 kts | 58° |
| 2026-04-25 13:38 | 25.83956 | -149.80326 | 37000 ft | 462 kts | 58° |
| 2026-04-25 13:39 | 25.86763 | -149.75277 | 37000 ft | 462 kts | 58° |
| 2026-04-25 13:39 | 25.90138 | -149.69201 | 37000 ft | 462 kts | 58° |
| 2026-04-25 13:40 | 25.93513 | -149.63117 | 37000 ft | 462 kts | 58° |
| 2026-04-25 13:40 | 25.96862 | -149.57071 | 37000 ft | 462 kts | 58° |
| 2026-04-25 13:41 | 26.00230 | -149.50984 | 37000 ft | 462 kts | 58° |
| 2026-04-25 13:41 | 26.03594 | -149.44895 | 37000 ft | 462 kts | 58° |
| 2026-04-25 13:42 | 26.07502 | -149.37810 | 37000 ft | 462 kts | 58° |
| 2026-04-25 13:42 | 26.10316 | -149.32704 | 37000 ft | 462 kts | 58° |
| 2026-04-25 13:43 | 26.13652 | -149.26641 | 37000 ft | 462 kts | 58° |
| 2026-04-25 13:43 | 26.17005 | -149.20540 | 37000 ft | 462 kts | 58° |
| 2026-04-25 13:44 | 26.20358 | -149.14431 | 37000 ft | 462 kts | 58° |
| 2026-04-25 13:44 | 26.23705 | -149.08325 | 37000 ft | 462 kts | 58° |
| 2026-04-25 13:45 | 26.27051 | -149.02211 | 37000 ft | 462 kts | 58° |
| 2026-04-25 13:45 | 26.30372 | -148.96134 | 37000 ft | 462 kts | 58° |
| 2026-04-25 13:46 | 26.33711 | -148.90019 | 37000 ft | 462 kts | 58° |
| 2026-04-25 13:46 | 26.37048 | -148.83897 | 37000 ft | 462 kts | 58° |
| 2026-04-25 13:47 | 26.40382 | -148.77772 | 37000 ft | 462 kts | 58° |
| 2026-04-25 13:47 | 26.43693 | -148.71682 | 37000 ft | 462 kts | 58° |
| 2026-04-25 13:48 | 26.47020 | -148.65554 | 37000 ft | 462 kts | 58° |
| 2026-04-25 13:48 | 26.50348 | -148.59415 | 37000 ft | 462 kts | 59° |
| 2026-04-25 13:49 | 26.53668 | -148.53283 | 37000 ft | 462 kts | 59° |
| 2026-04-25 13:49 | 26.56968 | -148.47179 | 37000 ft | 462 kts | 59° |
| 2026-04-25 13:50 | 26.60284 | -148.41039 | 37000 ft | 462 kts | 59° |
| 2026-04-25 13:50 | 26.63599 | -148.34891 | 37000 ft | 462 kts | 59° |
| 2026-04-25 13:51 | 26.66911 | -148.28740 | 37000 ft | 462 kts | 59° |
| 2026-04-25 13:51 | 26.70221 | -148.22584 | 37000 ft | 462 kts | 59° |
| 2026-04-25 13:52 | 26.73502 | -148.16474 | 37000 ft | 462 kts | 59° |
| 2026-04-25 13:52 | 26.76806 | -148.10314 | 37000 ft | 462 kts | 59° |
| 2026-04-25 13:53 | 26.80106 | -148.04152 | 37000 ft | 462 kts | 59° |
| 2026-04-25 13:53 | 26.83405 | -147.97982 | 37000 ft | 462 kts | 59° |
| 2026-04-25 13:54 | 26.86677 | -147.91855 | 37000 ft | 461 kts | 59° |
| 2026-04-25 13:54 | 26.89968 | -147.85683 | 37000 ft | 461 kts | 59° |
| 2026-04-25 13:55 | 26.93256 | -147.79508 | 37000 ft | 461 kts | 59° |
| 2026-04-25 13:55 | 26.96543 | -147.73328 | 37000 ft | 461 kts | 59° |
| 2026-04-25 13:56 | 26.99803 | -147.67190 | 37000 ft | 461 kts | 59° |
| 2026-04-25 13:56 | 27.03082 | -147.61006 | 37000 ft | 461 kts | 59° |
| 2026-04-25 13:57 | 27.06357 | -147.54821 | 37000 ft | 461 kts | 59° |
| 2026-04-25 13:57 | 27.09633 | -147.48626 | 37000 ft | 461 kts | 59° |
| 2026-04-25 13:58 | 27.12903 | -147.42433 | 37000 ft | 461 kts | 59° |
| 2026-04-25 13:58 | 27.16151 | -147.36275 | 37000 ft | 461 kts | 59° |
| 2026-04-25 13:59 | 27.19414 | -147.30077 | 37000 ft | 461 kts | 59° |
| 2026-04-25 13:59 | 27.22677 | -147.23872 | 37000 ft | 461 kts | 59° |
| 2026-04-25 14:00 | 27.25724 | -147.17537 | 37000 ft | 461 kts | 64° |
| 2026-04-25 14:00 | 27.28494 | -147.11033 | 37000 ft | 461 kts | 65° |
| 2026-04-25 14:01 | 27.31214 | -147.04559 | 37000 ft | 461 kts | 64° |
| 2026-04-25 14:01 | 27.33985 | -146.98052 | 37000 ft | 461 kts | 64° |
| 2026-04-25 14:02 | 27.36770 | -146.91560 | 37000 ft | 461 kts | 64° |
| 2026-04-25 14:02 | 27.39559 | -146.85063 | 37000 ft | 461 kts | 64° |
| 2026-04-25 14:03 | 27.42327 | -146.78605 | 37000 ft | 461 kts | 64° |
| 2026-04-25 14:03 | 27.45107 | -146.72103 | 37000 ft | 461 kts | 64° |
| 2026-04-25 14:04 | 27.47884 | -146.65597 | 37000 ft | 461 kts | 64° |
| 2026-04-25 14:04 | 27.50657 | -146.59091 | 37000 ft | 461 kts | 64° |
| 2026-04-25 14:05 | 27.53410 | -146.52621 | 37000 ft | 461 kts | 64° |
| 2026-04-25 14:05 | 27.56177 | -146.46107 | 37000 ft | 461 kts | 64° |
| 2026-04-25 14:06 | 27.58939 | -146.39594 | 37000 ft | 461 kts | 64° |
| 2026-04-25 14:06 | 27.61702 | -146.33069 | 37000 ft | 461 kts | 64° |
| 2026-04-25 14:07 | 27.64460 | -146.26546 | 37000 ft | 461 kts | 64° |
| 2026-04-25 14:07 | 27.67195 | -146.20066 | 37000 ft | 461 kts | 64° |
| 2026-04-25 14:08 | 27.69946 | -146.13537 | 37000 ft | 461 kts | 64° |
| 2026-04-25 14:08 | 27.72692 | -146.07010 | 37000 ft | 461 kts | 64° |
| 2026-04-25 14:09 | 27.75437 | -146.00476 | 37000 ft | 461 kts | 64° |
| 2026-04-25 14:09 | 27.78161 | -145.93980 | 37000 ft | 461 kts | 64° |
| 2026-04-25 14:10 | 27.80899 | -145.87440 | 37000 ft | 461 kts | 64° |
| 2026-04-25 14:10 | 27.83632 | -145.80902 | 37000 ft | 460 kts | 64° |
| 2026-04-25 14:11 | 27.86365 | -145.74354 | 37000 ft | 460 kts | 64° |
| 2026-04-25 14:11 | 27.89091 | -145.67811 | 37000 ft | 460 kts | 65° |
| 2026-04-25 14:12 | 27.91799 | -145.61302 | 37000 ft | 460 kts | 65° |
| 2026-04-25 14:12 | 27.94369 | -145.55112 | 36641 ft | 455 kts | 62° |
| 2026-04-25 14:12 | 27.95710 | -145.51876 | 36856 ft | 450 kts | 60° |
| 2026-04-25 14:13 | 27.97031 | -145.48689 | 37412 ft | 447 kts | 65° |
| 2026-04-25 14:13 | 27.98349 | -145.45507 | 37271 ft | 448 kts | 65° |
| 2026-04-25 14:13 | 27.99682 | -145.42286 | 37006 ft | 455 kts | 65° |
| 2026-04-25 14:14 | 28.02359 | -145.35812 | 36996 ft | 458 kts | 65° |
| 2026-04-25 14:14 | 28.05059 | -145.29267 | 37000 ft | 461 kts | 65° |
| 2026-04-25 14:15 | 28.07771 | -145.22684 | 37000 ft | 461 kts | 65° |
| 2026-04-25 14:15 | 28.10474 | -145.16111 | 37000 ft | 460 kts | 65° |
| 2026-04-25 14:16 | 28.13173 | -145.09538 | 37000 ft | 460 kts | 65° |
| 2026-04-25 14:16 | 28.15851 | -145.03004 | 37000 ft | 460 kts | 65° |
| 2026-04-25 14:17 | 28.18543 | -144.96427 | 37000 ft | 460 kts | 65° |
| 2026-04-25 14:17 | 28.21232 | -144.89845 | 37000 ft | 460 kts | 65° |
| 2026-04-25 14:18 | 28.23917 | -144.83262 | 37000 ft | 460 kts | 65° |
| 2026-04-25 14:18 | 28.26582 | -144.76715 | 37000 ft | 460 kts | 65° |
| 2026-04-25 14:19 | 28.29259 | -144.70130 | 37000 ft | 460 kts | 65° |
| 2026-04-25 14:19 | 28.31937 | -144.63532 | 37000 ft | 460 kts | 65° |
| 2026-04-25 14:20 | 28.34607 | -144.56940 | 37000 ft | 460 kts | 65° |
| 2026-04-25 14:20 | 28.37277 | -144.50339 | 37000 ft | 460 kts | 65° |
| 2026-04-25 14:21 | 28.39924 | -144.43782 | 37000 ft | 460 kts | 65° |
| 2026-04-25 14:21 | 28.42586 | -144.37178 | 37000 ft | 460 kts | 65° |
| 2026-04-25 14:22 | 28.45246 | -144.30567 | 37000 ft | 460 kts | 65° |
| 2026-04-25 14:22 | 28.47900 | -144.23959 | 37000 ft | 460 kts | 65° |
| 2026-04-25 14:23 | 28.50534 | -144.17391 | 37000 ft | 460 kts | 65° |
| 2026-04-25 14:23 | 28.53182 | -144.10778 | 37000 ft | 460 kts | 65° |
| 2026-04-25 14:24 | 28.55828 | -144.04157 | 37000 ft | 460 kts | 65° |
| 2026-04-25 14:24 | 28.58468 | -143.97539 | 37000 ft | 460 kts | 65° |
| 2026-04-25 14:25 | 28.61107 | -143.90912 | 37000 ft | 460 kts | 65° |
| 2026-04-25 14:25 | 28.63725 | -143.84329 | 37000 ft | 460 kts | 65° |
| 2026-04-25 14:26 | 28.66355 | -143.77700 | 37000 ft | 459 kts | 65° |
| 2026-04-25 14:26 | 28.68984 | -143.71065 | 37000 ft | 459 kts | 65° |
| 2026-04-25 14:27 | 28.71608 | -143.64431 | 37000 ft | 459 kts | 65° |
| 2026-04-25 14:27 | 28.74230 | -143.57792 | 37000 ft | 459 kts | 65° |
| 2026-04-25 14:28 | 28.76831 | -143.51193 | 37000 ft | 459 kts | 66° |
| 2026-04-25 14:28 | 28.79443 | -143.44554 | 37000 ft | 459 kts | 66° |
| 2026-04-25 14:29 | 28.82057 | -143.37899 | 37000 ft | 459 kts | 66° |
| 2026-04-25 14:29 | 28.84664 | -143.31251 | 37000 ft | 459 kts | 66° |
| 2026-04-25 14:30 | 28.87251 | -143.24642 | 37000 ft | 459 kts | 66° |
| 2026-04-25 14:30 | 28.91150 | -143.14659 | 37000 ft | 459 kts | 66° |
| 2026-04-25 14:31 | 28.93745 | -143.08000 | 37000 ft | 459 kts | 66° |
| 2026-04-25 14:31 | 28.96336 | -143.01338 | 37000 ft | 459 kts | 66° |
| 2026-04-25 14:32 | 28.98926 | -142.94669 | 37000 ft | 459 kts | 66° |
| 2026-04-25 14:32 | 29.01492 | -142.88049 | 37000 ft | 459 kts | 66° |
| 2026-04-25 14:33 | 29.04074 | -142.81378 | 37000 ft | 459 kts | 66° |
| 2026-04-25 14:33 | 29.06652 | -142.74703 | 37000 ft | 459 kts | 66° |
| 2026-04-25 14:34 | 29.09228 | -142.68022 | 37000 ft | 459 kts | 66° |
| 2026-04-25 14:34 | 29.11782 | -142.61387 | 37000 ft | 459 kts | 66° |
| 2026-04-25 14:35 | 29.14348 | -142.54708 | 37000 ft | 459 kts | 66° |
| 2026-04-25 14:35 | 29.16913 | -142.48021 | 37000 ft | 459 kts | 66° |
| 2026-04-25 14:36 | 29.19475 | -142.41329 | 37000 ft | 459 kts | 66° |
| 2026-04-25 14:36 | 29.22015 | -142.34681 | 37000 ft | 459 kts | 66° |
| 2026-04-25 14:37 | 29.24566 | -142.27994 | 37000 ft | 459 kts | 66° |
| 2026-04-25 14:37 | 29.27117 | -142.21294 | 37000 ft | 459 kts | 66° |
| 2026-04-25 14:38 | 29.29663 | -142.14596 | 37000 ft | 459 kts | 66° |
| 2026-04-25 14:38 | 29.32206 | -142.07892 | 37000 ft | 459 kts | 66° |
| 2026-04-25 14:39 | 29.34730 | -142.01228 | 37000 ft | 459 kts | 66° |
| 2026-04-25 14:39 | 29.37266 | -141.94520 | 37000 ft | 459 kts | 66° |
| 2026-04-25 14:40 | 29.39798 | -141.87809 | 37000 ft | 459 kts | 66° |
| 2026-04-25 14:40 | 29.42327 | -141.81095 | 37000 ft | 459 kts | 66° |
| 2026-04-25 14:41 | 29.44853 | -141.74376 | 37000 ft | 459 kts | 66° |
| 2026-04-25 14:41 | 29.47359 | -141.67699 | 37000 ft | 458 kts | 66° |
| 2026-04-25 14:42 | 29.49450 | -141.62118 | 37000 ft | 458 kts | 66° |
| 2026-04-25 14:42 | 29.52391 | -141.54253 | 37000 ft | 458 kts | 66° |
| 2026-04-25 14:43 | 29.54903 | -141.47522 | 37000 ft | 458 kts | 66° |
| 2026-04-25 14:43 | 29.57394 | -141.40836 | 37000 ft | 458 kts | 66° |
| 2026-04-25 14:44 | 29.59897 | -141.34104 | 37000 ft | 458 kts | 67° |
| 2026-04-25 14:44 | 29.62396 | -141.27370 | 37000 ft | 458 kts | 67° |
| 2026-04-25 14:45 | 29.64895 | -141.20626 | 37000 ft | 458 kts | 67° |
| 2026-04-25 14:45 | 29.67372 | -141.13926 | 37000 ft | 458 kts | 67° |
| 2026-04-25 14:46 | 29.69860 | -141.07185 | 37000 ft | 458 kts | 67° |
| 2026-04-25 14:46 | 29.72346 | -141.00436 | 37000 ft | 458 kts | 67° |
| 2026-04-25 14:47 | 29.74410 | -140.94826 | 37000 ft | 458 kts | 67° |
| 2026-04-25 14:47 | 29.77290 | -140.86978 | 37000 ft | 458 kts | 67° |
| 2026-04-25 14:48 | 29.79765 | -140.80224 | 37000 ft | 458 kts | 67° |
| 2026-04-25 14:48 | 29.82237 | -140.73461 | 37000 ft | 458 kts | 67° |
| 2026-04-25 14:49 | 29.84706 | -140.66697 | 37000 ft | 458 kts | 67° |
| 2026-04-25 14:49 | 29.87152 | -140.59982 | 37000 ft | 458 kts | 67° |
| 2026-04-25 14:50 | 29.89614 | -140.53212 | 37000 ft | 458 kts | 67° |
| 2026-04-25 14:50 | 29.92067 | -140.46450 | 37000 ft | 458 kts | 67° |
| 2026-04-25 14:51 | 29.94522 | -140.39673 | 37000 ft | 458 kts | 67° |
| 2026-04-25 14:51 | 29.96863 | -140.32855 | 37000 ft | 458 kts | 69° |
| 2026-04-25 14:52 | 29.99089 | -140.26024 | 37000 ft | 458 kts | 69° |
| 2026-04-25 14:52 | 30.00955 | -140.20271 | 37000 ft | 458 kts | 69° |
| 2026-04-25 14:53 | 30.03558 | -140.12283 | 37000 ft | 457 kts | 69° |
| 2026-04-25 14:53 | 30.05803 | -140.05409 | 37000 ft | 457 kts | 69° |
| 2026-04-25 14:54 | 30.08029 | -139.98584 | 37000 ft | 457 kts | 69° |
| 2026-04-25 14:54 | 30.10265 | -139.91713 | 37000 ft | 457 kts | 69° |
| 2026-04-25 14:55 | 30.12499 | -139.84835 | 37000 ft | 457 kts | 69° |
| 2026-04-25 14:55 | 30.14730 | -139.77951 | 37000 ft | 457 kts | 69° |
| 2026-04-25 14:56 | 30.16954 | -139.71074 | 37000 ft | 457 kts | 69° |
| 2026-04-25 14:56 | 30.19162 | -139.64231 | 37000 ft | 457 kts | 69° |
| 2026-04-25 14:57 | 30.21379 | -139.57347 | 37000 ft | 457 kts | 69° |
| 2026-04-25 14:57 | 30.23593 | -139.50458 | 37000 ft | 457 kts | 69° |
| 2026-04-25 14:58 | 30.25804 | -139.43563 | 37000 ft | 457 kts | 69° |
| 2026-04-25 14:58 | 30.28010 | -139.36670 | 37000 ft | 457 kts | 70° |
| 2026-04-25 14:59 | 30.30198 | -139.29819 | 37000 ft | 457 kts | 70° |
| 2026-04-25 14:59 | 30.32396 | -139.22924 | 37000 ft | 457 kts | 70° |
| 2026-04-25 15:00 | 30.34592 | -139.16019 | 37000 ft | 457 kts | 70° |
| 2026-04-25 15:00 | 30.36782 | -139.09118 | 37000 ft | 457 kts | 70° |
| 2026-04-25 15:01 | 30.38955 | -139.02258 | 37000 ft | 457 kts | 70° |
| 2026-04-25 15:01 | 30.41138 | -138.95351 | 37000 ft | 457 kts | 70° |
| 2026-04-25 15:02 | 30.43316 | -138.88445 | 37000 ft | 457 kts | 70° |
| 2026-04-25 15:02 | 30.45494 | -138.81526 | 37000 ft | 457 kts | 70° |
| 2026-04-25 15:03 | 30.47664 | -138.74616 | 37000 ft | 456 kts | 70° |
| 2026-04-25 15:03 | 30.49817 | -138.67746 | 37000 ft | 456 kts | 70° |
| 2026-04-25 15:04 | 30.51981 | -138.60825 | 37000 ft | 456 kts | 70° |
| 2026-04-25 15:04 | 30.54141 | -138.53904 | 37000 ft | 456 kts | 70° |
| 2026-04-25 15:05 | 30.56296 | -138.46983 | 37000 ft | 456 kts | 70° |
| 2026-04-25 15:06 | 30.59509 | -138.36634 | 37000 ft | 456 kts | 70° |
| 2026-04-25 15:06 | 30.61656 | -138.29704 | 37000 ft | 456 kts | 70° |
| 2026-04-25 15:07 | 30.63796 | -138.22779 | 37000 ft | 456 kts | 70° |
| 2026-04-25 15:07 | 30.65936 | -138.15840 | 37000 ft | 456 kts | 70° |
| 2026-04-25 15:08 | 30.68071 | -138.08900 | 37000 ft | 456 kts | 70° |
| 2026-04-25 15:08 | 30.70187 | -138.02011 | 37000 ft | 456 kts | 70° |
| 2026-04-25 15:09 | 30.72313 | -137.95072 | 37000 ft | 456 kts | 70° |
| 2026-04-25 15:09 | 30.75496 | -137.84655 | 37000 ft | 456 kts | 70° |
| 2026-04-25 15:10 | 30.77613 | -137.77705 | 37000 ft | 456 kts | 70° |
| 2026-04-25 15:11 | 30.80767 | -137.67329 | 37000 ft | 456 kts | 70° |
| 2026-04-25 15:11 | 30.82873 | -137.60377 | 37000 ft | 456 kts | 70° |
| 2026-04-25 15:12 | 30.86027 | -137.49943 | 37000 ft | 456 kts | 70° |
| 2026-04-25 15:12 | 30.87416 | -137.45334 | 37000 ft | 456 kts | 70° |
| 2026-04-25 15:13 | 30.91247 | -137.32594 | 37000 ft | 455 kts | 71° |
| 2026-04-25 15:14 | 30.93332 | -137.25637 | 37000 ft | 455 kts | 71° |
| 2026-04-25 15:14 | 30.95418 | -137.18662 | 37000 ft | 455 kts | 71° |
| 2026-04-25 15:15 | 30.97144 | -137.12878 | 37000 ft | 455 kts | 71° |
| 2026-04-25 15:15 | 30.99474 | -137.05055 | 37000 ft | 455 kts | 71° |
| 2026-04-25 15:16 | 31.01547 | -136.98077 | 37000 ft | 455 kts | 71° |
| 2026-04-25 15:16 | 31.04647 | -136.87613 | 37000 ft | 455 kts | 71° |
| 2026-04-25 15:17 | 31.07723 | -136.77195 | 37000 ft | 455 kts | 71° |
| 2026-04-25 15:18 | 31.09779 | -136.70211 | 37000 ft | 455 kts | 71° |
| 2026-04-25 15:18 | 31.12855 | -136.59736 | 37000 ft | 455 kts | 71° |
| 2026-04-25 15:19 | 31.14212 | -136.55104 | 37000 ft | 455 kts | 71° |
| 2026-04-25 15:19 | 31.16944 | -136.45754 | 37000 ft | 455 kts | 71° |
| 2026-04-25 15:20 | 31.18968 | -136.38809 | 37000 ft | 455 kts | 71° |
| 2026-04-25 15:20 | 31.21000 | -136.31820 | 37000 ft | 455 kts | 71° |
| 2026-04-25 15:21 | 31.23030 | -136.24823 | 37000 ft | 455 kts | 71° |
| 2026-04-25 15:21 | 31.25043 | -136.17868 | 37000 ft | 455 kts | 71° |
| 2026-04-25 15:22 | 31.27065 | -136.10866 | 37000 ft | 455 kts | 71° |
| 2026-04-25 15:22 | 31.29081 | -136.03866 | 37000 ft | 455 kts | 71° |
| 2026-04-25 15:23 | 31.31095 | -135.96860 | 37000 ft | 454 kts | 71° |
| 2026-04-25 15:23 | 31.33105 | -135.89853 | 37000 ft | 454 kts | 71° |
| 2026-04-25 15:24 | 31.35097 | -135.82890 | 37000 ft | 454 kts | 71° |
| 2026-04-25 15:24 | 31.36435 | -135.78204 | 37000 ft | 454 kts | 71° |
| 2026-04-25 15:25 | 31.39097 | -135.68863 | 37000 ft | 454 kts | 71° |
| 2026-04-25 15:25 | 31.41091 | -135.61844 | 37000 ft | 454 kts | 71° |
| 2026-04-25 15:26 | 31.43065 | -135.54879 | 37000 ft | 454 kts | 71° |
| 2026-04-25 15:26 | 31.45052 | -135.47853 | 37000 ft | 454 kts | 71° |
| 2026-04-25 15:27 | 31.47033 | -135.40833 | 37000 ft | 454 kts | 71° |
| 2026-04-25 15:28 | 31.49997 | -135.30296 | 37000 ft | 454 kts | 72° |
| 2026-04-25 15:28 | 31.51955 | -135.23314 | 37000 ft | 454 kts | 72° |
| 2026-04-25 15:29 | 31.53923 | -135.16281 | 37000 ft | 454 kts | 72° |
| 2026-04-25 15:29 | 31.55885 | -135.09252 | 37000 ft | 454 kts | 72° |
| 2026-04-25 15:30 | 31.57844 | -135.02217 | 37000 ft | 454 kts | 72° |
| 2026-04-25 15:30 | 31.59799 | -134.95182 | 37000 ft | 454 kts | 72° |
| 2026-04-25 15:31 | 31.61737 | -134.88189 | 37000 ft | 454 kts | 72° |
| 2026-04-25 15:31 | 31.63684 | -134.81148 | 37000 ft | 454 kts | 72° |
| 2026-04-25 15:32 | 31.65626 | -134.74106 | 37000 ft | 454 kts | 72° |
| 2026-04-25 15:32 | 31.67565 | -134.67058 | 37000 ft | 454 kts | 72° |
| 2026-04-25 15:33 | 31.70452 | -134.56536 | 37000 ft | 453 kts | 72° |
| 2026-04-25 15:33 | 31.72382 | -134.49481 | 37000 ft | 453 kts | 72° |
| 2026-04-25 15:34 | 31.74306 | -134.42427 | 37000 ft | 453 kts | 72° |
| 2026-04-25 15:34 | 31.75578 | -134.37755 | 37000 ft | 453 kts | 72° |
| 2026-04-25 15:35 | 31.79084 | -134.24839 | 37000 ft | 453 kts | 72° |
| 2026-04-25 15:36 | 31.81948 | -134.14246 | 37000 ft | 453 kts | 72° |
| 2026-04-25 15:36 | 31.83855 | -134.07173 | 37000 ft | 453 kts | 72° |
| 2026-04-25 15:37 | 31.85752 | -134.00116 | 37000 ft | 453 kts | 72° |
| 2026-04-25 15:37 | 31.87637 | -133.93089 | 37000 ft | 453 kts | 72° |
| 2026-04-25 15:38 | 31.89529 | -133.86017 | 37000 ft | 453 kts | 72° |
| 2026-04-25 15:38 | 31.91416 | -133.78945 | 37000 ft | 453 kts | 72° |
| 2026-04-25 15:39 | 31.93300 | -133.71870 | 37000 ft | 453 kts | 72° |
| 2026-04-25 15:39 | 31.95179 | -133.64793 | 37000 ft | 453 kts | 72° |
| 2026-04-25 15:40 | 31.96416 | -133.60126 | 37000 ft | 453 kts | 72° |
| 2026-04-25 15:40 | 31.98912 | -133.50682 | 37000 ft | 453 kts | 72° |
| 2026-04-25 15:41 | 32.00777 | -133.43609 | 37000 ft | 453 kts | 72° |
| 2026-04-25 15:41 | 32.02641 | -133.36517 | 37000 ft | 453 kts | 72° |
| 2026-04-25 15:42 | 32.04500 | -133.29428 | 37000 ft | 453 kts | 73° |
| 2026-04-25 15:42 | 32.06342 | -133.22386 | 37000 ft | 453 kts | 73° |
| 2026-04-25 15:43 | 32.08139 | -133.15227 | 36456 ft | 456 kts | 79° |
| 2026-04-25 15:43 | 32.08486 | -133.11393 | 34794 ft | 476 kts | 86° |
| 2026-04-25 15:43 | 32.08729 | -133.07630 | 34806 ft | 460 kts | 85° |
| 2026-04-25 15:44 | 32.09349 | -133.03975 | 34810 ft | 454 kts | 70° |
| 2026-04-25 15:44 | 32.10571 | -133.00541 | 34821 ft | 455 kts | 64° |
| 2026-04-25 15:44 | 32.13285 | -132.93773 | 34817 ft | 458 kts | 66° |
| 2026-04-25 15:45 | 32.14494 | -132.90285 | 34956 ft | 458 kts | 69° |
| 2026-04-25 15:45 | 32.15567 | -132.86775 | 35311 ft | 453 kts | 71° |
| 2026-04-25 15:45 | 32.16663 | -132.83311 | 35616 ft | 448 kts | 66° |
| 2026-04-25 15:45 | 32.17101 | -132.82179 | 35691 ft | 448 kts | 64° |
| 2026-04-25 15:46 | 32.19367 | -132.76699 | 35940 ft | 447 kts | 63° |
| 2026-04-25 15:46 | 32.20777 | -132.73432 | 36069 ft | 447 kts | 63° |
| 2026-04-25 15:46 | 32.23651 | -132.66929 | 36287 ft | 447 kts | 62° |
| 2026-04-25 15:47 | 32.26541 | -132.60433 | 36491 ft | 447 kts | 62° |
| 2026-04-25 15:47 | 32.29421 | -132.53934 | 36681 ft | 447 kts | 62° |
| 2026-04-25 15:48 | 32.32300 | -132.47411 | 36814 ft | 448 kts | 62° |
| 2026-04-25 15:48 | 32.35180 | -132.40867 | 36949 ft | 449 kts | 62° |
| 2026-04-25 15:49 | 32.37580 | -132.35407 | 36999 ft | 451 kts | 62° |
| 2026-04-25 15:49 | 32.40475 | -132.28806 | 37000 ft | 452 kts | 62° |
| 2026-04-25 15:50 | 32.43367 | -132.22205 | 37000 ft | 452 kts | 62° |
| 2026-04-25 15:50 | 32.46256 | -132.15595 | 37000 ft | 452 kts | 62° |
| 2026-04-25 15:51 | 32.48670 | -132.10064 | 37000 ft | 452 kts | 63° |
| 2026-04-25 15:51 | 32.52019 | -132.02377 | 37000 ft | 451 kts | 63° |
| 2026-04-25 15:52 | 32.54897 | -131.95756 | 37000 ft | 451 kts | 63° |
| 2026-04-25 15:52 | 32.57768 | -131.89141 | 37000 ft | 451 kts | 63° |
| 2026-04-25 15:53 | 32.60635 | -131.82521 | 37000 ft | 451 kts | 63° |
| 2026-04-25 15:53 | 32.63499 | -131.75897 | 37000 ft | 451 kts | 63° |
| 2026-04-25 15:54 | 32.66361 | -131.69264 | 37000 ft | 451 kts | 63° |
| 2026-04-25 15:54 | 32.69214 | -131.62640 | 37000 ft | 451 kts | 63° |
| 2026-04-25 15:55 | 32.72063 | -131.56015 | 37000 ft | 451 kts | 63° |
| 2026-04-25 15:55 | 32.74919 | -131.49358 | 37000 ft | 451 kts | 63° |
| 2026-04-25 15:56 | 32.77765 | -131.42714 | 37000 ft | 451 kts | 63° |
| 2026-04-25 15:56 | 32.80602 | -131.36077 | 37000 ft | 451 kts | 63° |
| 2026-04-25 15:57 | 32.83440 | -131.29427 | 37000 ft | 451 kts | 63° |
| 2026-04-25 15:57 | 32.86275 | -131.22771 | 37000 ft | 451 kts | 63° |
| 2026-04-25 15:58 | 32.89106 | -131.16111 | 37000 ft | 451 kts | 63° |
| 2026-04-25 15:58 | 32.91930 | -131.09457 | 37000 ft | 451 kts | 63° |
| 2026-04-25 15:59 | 32.94754 | -131.02788 | 37000 ft | 451 kts | 63° |
| 2026-04-25 15:59 | 32.97571 | -130.96125 | 37000 ft | 451 kts | 63° |
| 2026-04-25 16:00 | 32.99456 | -130.91660 | 37000 ft | 451 kts | 63° |
| 2026-04-25 16:00 | 33.03199 | -130.82773 | 37000 ft | 451 kts | 63° |
| 2026-04-25 16:01 | 33.06005 | -130.76097 | 37000 ft | 451 kts | 63° |
| 2026-04-25 16:01 | 33.08808 | -130.69417 | 37000 ft | 450 kts | 63° |
| 2026-04-25 16:02 | 33.11605 | -130.62736 | 37000 ft | 450 kts | 63° |
| 2026-04-25 16:02 | 33.14403 | -130.56040 | 37000 ft | 450 kts | 63° |
| 2026-04-25 16:03 | 33.17194 | -130.49349 | 37000 ft | 450 kts | 63° |
| 2026-04-25 16:03 | 33.19979 | -130.42659 | 37000 ft | 450 kts | 63° |
| 2026-04-25 16:04 | 33.22746 | -130.36002 | 37000 ft | 450 kts | 63° |
| 2026-04-25 16:04 | 33.25543 | -130.29257 | 37000 ft | 450 kts | 63° |
| 2026-04-25 16:05 | 33.28320 | -130.22548 | 37000 ft | 450 kts | 63° |
| 2026-04-25 16:06 | 33.32457 | -130.12528 | 37000 ft | 450 kts | 64° |
| 2026-04-25 16:06 | 33.35223 | -130.05815 | 37000 ft | 450 kts | 64° |
| 2026-04-25 16:07 | 33.37985 | -129.99096 | 37000 ft | 450 kts | 64° |
| 2026-04-25 16:07 | 33.40744 | -129.92371 | 37000 ft | 450 kts | 64° |
| 2026-04-25 16:08 | 33.43498 | -129.85647 | 37000 ft | 450 kts | 64° |
| 2026-04-25 16:08 | 33.46247 | -129.78922 | 37000 ft | 450 kts | 64° |
| 2026-04-25 16:09 | 33.48994 | -129.72188 | 37000 ft | 450 kts | 64° |
| 2026-04-25 16:09 | 33.51736 | -129.65451 | 37000 ft | 450 kts | 64° |
| 2026-04-25 16:10 | 33.54475 | -129.58712 | 37000 ft | 450 kts | 64° |
| 2026-04-25 16:10 | 33.57210 | -129.51967 | 37000 ft | 450 kts | 64° |
| 2026-04-25 16:11 | 33.59942 | -129.45217 | 37000 ft | 450 kts | 64° |
| 2026-04-25 16:11 | 33.62667 | -129.38470 | 37000 ft | 450 kts | 64° |
| 2026-04-25 16:12 | 33.65388 | -129.31720 | 37000 ft | 449 kts | 64° |
| 2026-04-25 16:12 | 33.68109 | -129.24957 | 37000 ft | 449 kts | 64° |
| 2026-04-25 16:13 | 33.70823 | -129.18199 | 37000 ft | 449 kts | 64° |
| 2026-04-25 16:13 | 33.73533 | -129.11437 | 37000 ft | 449 kts | 64° |
| 2026-04-25 16:14 | 33.76238 | -129.04672 | 37000 ft | 449 kts | 64° |
| 2026-04-25 16:14 | 33.78942 | -128.97898 | 37000 ft | 449 kts | 64° |
| 2026-04-25 16:15 | 33.81623 | -128.91169 | 37000 ft | 449 kts | 64° |
| 2026-04-25 16:15 | 33.84317 | -128.84393 | 37000 ft | 449 kts | 64° |
| 2026-04-25 16:16 | 33.86384 | -128.77330 | 37000 ft | 448 kts | 80° |
| 2026-04-25 16:16 | 33.86974 | -128.69872 | 37000 ft | 449 kts | 87° |
| 2026-04-25 16:17 | 33.87193 | -128.62363 | 37000 ft | 449 kts | 88° |
| 2026-04-25 16:17 | 33.87348 | -128.54848 | 37000 ft | 449 kts | 88° |
| 2026-04-25 16:18 | 33.87519 | -128.47341 | 37000 ft | 449 kts | 88° |
| 2026-04-25 16:18 | 33.87707 | -128.39825 | 37000 ft | 449 kts | 88° |
| 2026-04-25 16:19 | 33.87898 | -128.32321 | 37000 ft | 449 kts | 88° |
| 2026-04-25 16:19 | 33.88084 | -128.24807 | 37000 ft | 449 kts | 88° |
| 2026-04-25 16:20 | 33.88352 | -128.13547 | 37000 ft | 449 kts | 88° |
| 2026-04-25 16:21 | 33.88609 | -128.02285 | 37000 ft | 449 kts | 88° |
| 2026-04-25 16:21 | 33.88775 | -127.94769 | 37000 ft | 449 kts | 88° |
| 2026-04-25 16:22 | 33.88937 | -127.87264 | 37000 ft | 449 kts | 88° |
| 2026-04-25 16:22 | 33.89092 | -127.79800 | 37000 ft | 449 kts | 88° |
| 2026-04-25 16:23 | 33.89245 | -127.72294 | 37000 ft | 449 kts | 89° |
| 2026-04-25 16:23 | 33.89392 | -127.64787 | 37000 ft | 449 kts | 89° |
| 2026-04-25 16:24 | 33.89536 | -127.57278 | 37000 ft | 449 kts | 89° |
| 2026-04-25 16:24 | 33.89674 | -127.49769 | 37000 ft | 449 kts | 89° |
| 2026-04-25 16:25 | 33.89808 | -127.42263 | 37000 ft | 449 kts | 89° |
| 2026-04-25 16:25 | 33.89938 | -127.34751 | 37000 ft | 449 kts | 89° |
| 2026-04-25 16:26 | 33.90063 | -127.27241 | 37000 ft | 449 kts | 89° |
| 2026-04-25 16:26 | 33.90183 | -127.19728 | 37000 ft | 449 kts | 89° |
| 2026-04-25 16:27 | 33.90299 | -127.12218 | 37000 ft | 449 kts | 89° |
| 2026-04-25 16:27 | 33.90410 | -127.04705 | 37000 ft | 449 kts | 89° |
| 2026-04-25 16:28 | 33.90517 | -126.97196 | 37000 ft | 449 kts | 89° |
| 2026-04-25 16:28 | 33.90619 | -126.89681 | 37000 ft | 449 kts | 89° |
| 2026-04-25 16:29 | 33.90717 | -126.82163 | 37000 ft | 449 kts | 89° |
| 2026-04-25 16:29 | 33.90810 | -126.74652 | 37000 ft | 449 kts | 89° |
| 2026-04-25 16:30 | 33.90899 | -126.67137 | 37000 ft | 449 kts | 89° |
| 2026-04-25 16:30 | 33.90983 | -126.59625 | 37000 ft | 449 kts | 89° |
| 2026-04-25 16:31 | 33.91062 | -126.52116 | 37000 ft | 449 kts | 89° |
| 2026-04-25 16:31 | 33.91137 | -126.44602 | 37000 ft | 449 kts | 89° |
| 2026-04-25 16:32 | 33.91207 | -126.37090 | 37000 ft | 449 kts | 89° |
| 2026-04-25 16:32 | 33.91273 | -126.29579 | 37000 ft | 449 kts | 89° |
| 2026-04-25 16:33 | 33.91334 | -126.22064 | 37000 ft | 449 kts | 89° |
| 2026-04-25 16:33 | 33.91390 | -126.14552 | 37000 ft | 449 kts | 89° |
| 2026-04-25 16:34 | 33.91434 | -126.08304 | 37000 ft | 449 kts | 89° |
| 2026-04-25 16:34 | 33.91482 | -126.00792 | 37000 ft | 449 kts | 89° |
| 2026-04-25 16:35 | 33.91526 | -125.93273 | 37000 ft | 449 kts | 89° |
| 2026-04-25 16:35 | 33.91565 | -125.85761 | 37000 ft | 449 kts | 90° |
| 2026-04-25 16:36 | 33.91599 | -125.78243 | 37000 ft | 449 kts | 90° |
| 2026-04-25 16:36 | 33.91629 | -125.70733 | 37000 ft | 449 kts | 90° |
| 2026-04-25 16:37 | 33.91655 | -125.63211 | 37000 ft | 449 kts | 90° |
| 2026-04-25 16:37 | 33.91676 | -125.55704 | 37000 ft | 449 kts | 90° |
| 2026-04-25 16:38 | 33.91692 | -125.48188 | 37000 ft | 449 kts | 90° |
| 2026-04-25 16:38 | 33.91704 | -125.40669 | 37000 ft | 449 kts | 90° |
| 2026-04-25 16:39 | 33.91711 | -125.33154 | 37000 ft | 449 kts | 90° |
| 2026-04-25 16:39 | 33.91713 | -125.25640 | 37000 ft | 449 kts | 90° |
| 2026-04-25 16:40 | 33.91711 | -125.18127 | 37000 ft | 449 kts | 90° |
| 2026-04-25 16:40 | 33.91705 | -125.10608 | 37000 ft | 449 kts | 90° |
| 2026-04-25 16:41 | 33.91694 | -125.03090 | 37000 ft | 449 kts | 90° |
| 2026-04-25 16:41 | 33.91868 | -124.91830 | 37000 ft | 448 kts | 82° |
| 2026-04-25 16:42 | 33.93016 | -124.84500 | 37000 ft | 449 kts | 78° |
| 2026-04-25 16:42 | 33.94388 | -124.77170 | 37000 ft | 449 kts | 77° |
| 2026-04-25 16:43 | 33.95798 | -124.69842 | 37000 ft | 449 kts | 77° |
| 2026-04-25 16:43 | 33.97191 | -124.62514 | 37000 ft | 449 kts | 77° |
| 2026-04-25 16:44 | 33.98567 | -124.55176 | 37000 ft | 449 kts | 77° |
| 2026-04-25 16:44 | 33.99934 | -124.47836 | 37000 ft | 449 kts | 77° |
| 2026-04-25 16:45 | 34.01298 | -124.40489 | 37000 ft | 449 kts | 77° |
| 2026-04-25 16:45 | 34.02656 | -124.33148 | 37000 ft | 449 kts | 77° |
| 2026-04-25 16:46 | 34.04010 | -124.25804 | 37000 ft | 449 kts | 77° |
| 2026-04-25 16:46 | 34.05134 | -124.19689 | 37000 ft | 449 kts | 77° |
| 2026-04-25 16:47 | 34.06709 | -124.11092 | 37000 ft | 449 kts | 77° |
| 2026-04-25 16:47 | 34.08051 | -124.03737 | 37000 ft | 449 kts | 77° |
| 2026-04-25 16:48 | 34.09378 | -123.96433 | 37000 ft | 449 kts | 77° |
| 2026-04-25 16:48 | 34.10721 | -123.89021 | 37000 ft | 449 kts | 77° |
| 2026-04-25 16:49 | 34.12050 | -123.81658 | 37000 ft | 449 kts | 77° |
| 2026-04-25 16:49 | 34.13365 | -123.74343 | 37000 ft | 449 kts | 78° |
| 2026-04-25 16:50 | 34.14686 | -123.66976 | 37000 ft | 449 kts | 78° |
| 2026-04-25 16:50 | 34.16000 | -123.59612 | 37000 ft | 449 kts | 78° |
| 2026-04-25 16:51 | 34.17311 | -123.52242 | 37000 ft | 449 kts | 78° |
| 2026-04-25 16:51 | 34.18407 | -123.46059 | 37000 ft | 449 kts | 78° |
| 2026-04-25 16:52 | 34.19921 | -123.37489 | 37000 ft | 449 kts | 78° |
| 2026-04-25 16:52 | 34.21220 | -123.30109 | 37000 ft | 449 kts | 78° |
| 2026-04-25 16:53 | 34.22521 | -123.22681 | 36689 ft | 455 kts | 78° |
| 2026-04-25 16:53 | 34.23176 | -123.18940 | 36433 ft | 456 kts | 78° |
| 2026-04-25 16:53 | 34.23829 | -123.15193 | 36176 ft | 456 kts | 78° |
| 2026-04-25 16:54 | 34.24446 | -123.11433 | 35934 ft | 456 kts | 82° |
| 2026-04-25 16:54 | 34.24697 | -123.07632 | 35683 ft | 455 kts | 90° |
| 2026-04-25 16:54 | 34.24632 | -123.03802 | 35435 ft | 456 kts | 92° |
| 2026-04-25 16:54 | 34.24491 | -122.99973 | 35183 ft | 457 kts | 93° |
| 2026-04-25 16:55 | 34.24332 | -122.96183 | 34906 ft | 458 kts | 93° |
| 2026-04-25 16:55 | 34.24165 | -122.92344 | 34200 ft | 458 kts | 93° |
| 2026-04-25 16:55 | 34.23994 | -122.88515 | 33493 ft | 457 kts | 93° |
| 2026-04-25 16:55 | 34.23822 | -122.84665 | 32743 ft | 457 kts | 93° |
| 2026-04-25 16:56 | 34.23648 | -122.80824 | 31944 ft | 458 kts | 93° |
| 2026-04-25 16:56 | 34.23472 | -122.76971 | 31112 ft | 460 kts | 93° |
| 2026-04-25 16:56 | 34.23295 | -122.73109 | 30242 ft | 462 kts | 93° |
| 2026-04-25 16:56 | 34.23115 | -122.69231 | 29350 ft | 463 kts | 93° |
| 2026-04-25 16:57 | 34.22933 | -122.65329 | 28415 ft | 465 kts | 93° |
| 2026-04-25 16:57 | 34.22812 | -122.62745 | 27784 ft | 466 kts | 93° |
| 2026-04-25 16:57 | 34.22567 | -122.57547 | 26485 ft | 469 kts | 93° |
| 2026-04-25 16:57 | 34.22380 | -122.53610 | 25462 ft | 471 kts | 93° |
| 2026-04-25 16:58 | 34.22190 | -122.49646 | 24392 ft | 473 kts | 93° |
| 2026-04-25 16:58 | 34.21999 | -122.45673 | 23394 ft | 473 kts | 93° |
| 2026-04-25 16:58 | 34.21807 | -122.41723 | 22523 ft | 469 kts | 93° |
| 2026-04-25 16:58 | 34.21616 | -122.37811 | 21694 ft | 464 kts | 93° |
| 2026-04-25 16:59 | 34.21426 | -122.33943 | 20887 ft | 459 kts | 93° |
| 2026-04-25 16:59 | 34.21237 | -122.30122 | 20070 ft | 453 kts | 93° |
| 2026-04-25 16:59 | 34.21049 | -122.26344 | 19265 ft | 448 kts | 93° |
| 2026-04-25 16:59 | 34.20865 | -122.22661 | 18465 ft | 443 kts | 93° |
| 2026-04-25 17:00 | 34.20679 | -122.18969 | 17637 ft | 438 kts | 93° |
| 2026-04-25 17:00 | 34.20494 | -122.15321 | 16820 ft | 432 kts | 94° |
| 2026-04-25 17:00 | 34.20310 | -122.11720 | 16005 ft | 427 kts | 94° |
| 2026-04-25 17:00 | 34.20127 | -122.08157 | 15184 ft | 422 kts | 94° |
| 2026-04-25 17:01 | 34.19946 | -122.04636 | 14375 ft | 418 kts | 94° |
| 2026-04-25 17:01 | 34.19765 | -122.01154 | 13560 ft | 413 kts | 94° |
| 2026-04-25 17:01 | 34.19586 | -121.97714 | 12747 ft | 408 kts | 94° |
| 2026-04-25 17:01 | 34.19410 | -121.94361 | 11946 ft | 403 kts | 94° |
| 2026-04-25 17:02 | 34.19233 | -121.91002 | 11138 ft | 399 kts | 94° |
| 2026-04-25 17:02 | 34.19058 | -121.87682 | 10326 ft | 394 kts | 94° |
| 2026-04-25 17:02 | 34.18883 | -121.84398 | 9502 ft | 390 kts | 94° |
| 2026-04-25 17:02 | 34.18709 | -121.81153 | 8669 ft | 385 kts | 94° |
| 2026-04-25 17:03 | 34.18536 | -121.77940 | 7827 ft | 381 kts | 94° |
| 2026-04-25 17:03 | 34.18365 | -121.74770 | 6981 ft | 376 kts | 94° |
| 2026-04-25 17:03 | 34.18196 | -121.71643 | 6144 ft | 372 kts | 94° |
| 2026-04-25 17:03 | 34.18027 | -121.68543 | 5297 ft | 367 kts | 94° |
| 2026-04-25 17:04 | 34.17859 | -121.65483 | 4458 ft | 363 kts | 94° |
| 2026-04-25 17:04 | 34.17693 | -121.62460 | 3665 ft | 358 kts | 94° |
| 2026-04-25 17:04 | 34.17532 | -121.59552 | 3189 ft | 344 kts | 94° |
| 2026-04-25 17:04 | 34.17377 | -121.56761 | 3033 ft | 322 kts | 94° |
| 2026-04-25 17:05 | 34.17232 | -121.54167 | 3007 ft | 297 kts | 94° |
| 2026-04-25 17:05 | 34.16972 | -121.49534 | 3004 ft | 262 kts | 94° |
| 2026-04-25 17:05 | 34.16849 | -121.47341 | 3002 ft | 262 kts | 94° |
| 2026-04-25 17:06 | 34.16725 | -121.45144 | 3000 ft | 263 kts | 94° |
| 2026-04-25 17:06 | 34.16599 | -121.42938 | 3000 ft | 263 kts | 94° |
| 2026-04-25 17:06 | 34.16474 | -121.40736 | 3000 ft | 263 kts | 94° |
| 2026-04-25 17:06 | 34.16348 | -121.38529 | 3000 ft | 263 kts | 94° |
| 2026-04-25 17:07 | 34.16224 | -121.36352 | 3000 ft | 263 kts | 94° |
| 2026-04-25 17:07 | 34.16097 | -121.34147 | 3000 ft | 263 kts | 94° |
| 2026-04-25 17:07 | 34.15970 | -121.31944 | 3000 ft | 263 kts | 94° |
| 2026-04-25 17:07 | 34.15843 | -121.29739 | 3000 ft | 263 kts | 94° |
| 2026-04-25 17:08 | 34.15715 | -121.27530 | 3000 ft | 263 kts | 94° |
| 2026-04-25 17:08 | 34.15587 | -121.25327 | 3000 ft | 263 kts | 94° |
| 2026-04-25 17:08 | 34.15459 | -121.23124 | 3000 ft | 263 kts | 94° |
| 2026-04-25 17:08 | 34.15330 | -121.20922 | 3000 ft | 263 kts | 94° |
| 2026-04-25 17:09 | 34.15202 | -121.18743 | 3000 ft | 263 kts | 94° |
| 2026-04-25 17:09 | 34.15073 | -121.16541 | 3000 ft | 263 kts | 94° |
| 2026-04-25 17:09 | 34.14943 | -121.14333 | 3000 ft | 263 kts | 94° |
| 2026-04-25 17:09 | 34.14812 | -121.12130 | 3000 ft | 263 kts | 94° |
| 2026-04-25 17:10 | 34.14681 | -121.09928 | 3000 ft | 263 kts | 94° |
| 2026-04-25 17:10 | 34.14550 | -121.07720 | 3000 ft | 263 kts | 94° |
| 2026-04-25 17:10 | 34.14418 | -121.05517 | 3000 ft | 263 kts | 94° |
| 2026-04-25 17:10 | 34.14286 | -121.03313 | 3000 ft | 263 kts | 94° |
| 2026-04-25 17:11 | 34.14154 | -121.01109 | 3000 ft | 263 kts | 94° |
| 2026-04-25 17:11 | 34.14032 | -120.98904 | 3000 ft | 263 kts | 92° |
| 2026-04-25 17:11 | 34.14054 | -120.96697 | 3000 ft | 263 kts | 86° |
| 2026-04-25 17:11 | 34.14207 | -120.94494 | 3000 ft | 263 kts | 84° |
| 2026-04-25 17:12 | 34.14388 | -120.92292 | 3000 ft | 263 kts | 84° |
| 2026-04-25 17:12 | 34.14572 | -120.90097 | 3000 ft | 263 kts | 84° |
| 2026-04-25 17:12 | 34.14756 | -120.87893 | 3000 ft | 263 kts | 84° |
| 2026-04-25 17:12 | 34.14937 | -120.85695 | 3000 ft | 263 kts | 84° |
| 2026-04-25 17:13 | 34.15117 | -120.83496 | 3000 ft | 263 kts | 84° |
| 2026-04-25 17:13 | 34.15175 | -120.82782 | 3000 ft | 263 kts | 84° |
| 2026-04-25 17:13 | 34.15475 | -120.79098 | 3000 ft | 263 kts | 84° |
| 2026-04-25 17:13 | 34.15650 | -120.76925 | 3000 ft | 263 kts | 84° |
| 2026-04-25 17:14 | 34.15828 | -120.74729 | 3000 ft | 263 kts | 84° |
| 2026-04-25 17:14 | 34.16005 | -120.72525 | 3000 ft | 263 kts | 84° |
| 2026-04-25 17:14 | 34.16182 | -120.70326 | 3000 ft | 263 kts | 84° |
| 2026-04-25 17:14 | 34.16358 | -120.68129 | 3000 ft | 263 kts | 84° |
| 2026-04-25 17:15 | 34.16534 | -120.65928 | 3000 ft | 263 kts | 84° |
| 2026-04-25 17:15 | 34.16709 | -120.63728 | 3000 ft | 263 kts | 84° |
| 2026-04-25 17:15 | 34.16884 | -120.61526 | 3000 ft | 263 kts | 84° |
| 2026-04-25 17:15 | 34.17059 | -120.59327 | 3000 ft | 263 kts | 84° |
| 2026-04-25 17:16 | 34.17233 | -120.57125 | 3000 ft | 263 kts | 84° |
| 2026-04-25 17:16 | 34.17407 | -120.54927 | 3000 ft | 263 kts | 84° |
| 2026-04-25 17:16 | 34.17581 | -120.52724 | 3000 ft | 263 kts | 84° |
| 2026-04-25 17:16 | 34.17754 | -120.50524 | 3000 ft | 263 kts | 84° |
| 2026-04-25 17:17 | 34.17926 | -120.48323 | 3000 ft | 263 kts | 84° |
| 2026-04-25 17:17 | 34.18099 | -120.46121 | 3000 ft | 263 kts | 84° |
| 2026-04-25 17:17 | 34.18271 | -120.43918 | 3000 ft | 263 kts | 84° |
| 2026-04-25 17:17 | 34.18442 | -120.41722 | 3000 ft | 263 kts | 84° |
| 2026-04-25 17:18 | 34.18613 | -120.39516 | 3000 ft | 263 kts | 84° |
| 2026-04-25 17:18 | 34.18784 | -120.37316 | 3000 ft | 263 kts | 84° |
| 2026-04-25 17:18 | 34.18954 | -120.35113 | 3000 ft | 263 kts | 84° |
| 2026-04-25 17:18 | 34.19122 | -120.32913 | 3000 ft | 263 kts | 85° |
| 2026-04-25 17:19 | 34.19243 | -120.30706 | 3000 ft | 263 kts | 87° |
| 2026-04-25 17:19 | 34.19335 | -120.28499 | 3000 ft | 263 kts | 87° |
| 2026-04-25 17:19 | 34.19421 | -120.26289 | 3000 ft | 263 kts | 87° |
| 2026-04-25 17:19 | 34.19505 | -120.24084 | 3000 ft | 263 kts | 87° |
| 2026-04-25 17:20 | 34.19589 | -120.21868 | 3000 ft | 263 kts | 87° |
| 2026-04-25 17:20 | 34.19673 | -120.19663 | 3000 ft | 263 kts | 87° |
| 2026-04-25 17:20 | 34.19757 | -120.17457 | 3000 ft | 263 kts | 87° |
| 2026-04-25 17:20 | 34.19840 | -120.15244 | 3000 ft | 263 kts | 87° |
| 2026-04-25 17:21 | 34.19923 | -120.13037 | 3000 ft | 263 kts | 87° |
| 2026-04-25 17:21 | 34.20005 | -120.10825 | 3000 ft | 263 kts | 87° |
| 2026-04-25 17:21 | 34.20087 | -120.08619 | 3000 ft | 263 kts | 87° |
| 2026-04-25 17:21 | 34.20140 | -120.06407 | 3000 ft | 263 kts | 90° |
| 2026-04-25 17:22 | 34.20132 | -120.04197 | 3000 ft | 263 kts | 90° |
| 2026-04-25 17:22 | 34.20125 | -120.03480 | 3000 ft | 263 kts | 91° |
| 2026-04-25 17:22 | 34.20080 | -119.99771 | 3000 ft | 263 kts | 91° |
| 2026-04-25 17:22 | 34.20052 | -119.97562 | 3000 ft | 263 kts | 91° |
| 2026-04-25 17:23 | 34.20023 | -119.95353 | 3000 ft | 263 kts | 91° |
| 2026-04-25 17:23 | 34.19994 | -119.93143 | 3000 ft | 263 kts | 91° |
| 2026-04-25 17:23 | 34.19965 | -119.90928 | 3000 ft | 263 kts | 91° |
| 2026-04-25 17:23 | 34.19935 | -119.88719 | 3000 ft | 263 kts | 91° |
| 2026-04-25 17:24 | 34.19906 | -119.86505 | 3000 ft | 263 kts | 91° |
| 2026-04-25 17:24 | 34.19875 | -119.84294 | 3000 ft | 263 kts | 91° |
| 2026-04-25 17:24 | 34.19845 | -119.82085 | 3000 ft | 263 kts | 91° |
| 2026-04-25 17:24 | 34.19814 | -119.79901 | 3000 ft | 263 kts | 91° |
| 2026-04-25 17:25 | 34.19783 | -119.77692 | 3000 ft | 263 kts | 91° |
| 2026-04-25 17:25 | 34.19751 | -119.75480 | 3000 ft | 263 kts | 91° |
| 2026-04-25 17:25 | 34.19719 | -119.73273 | 3000 ft | 263 kts | 91° |
| 2026-04-25 17:25 | 34.19686 | -119.71062 | 3000 ft | 263 kts | 91° |
| 2026-04-25 17:26 | 34.19653 | -119.68849 | 3000 ft | 263 kts | 91° |
| 2026-04-25 17:26 | 34.19620 | -119.66640 | 3000 ft | 263 kts | 91° |
| 2026-04-25 17:26 | 34.19586 | -119.64428 | 3000 ft | 263 kts | 91° |
| 2026-04-25 17:26 | 34.19552 | -119.62216 | 3000 ft | 263 kts | 91° |
| 2026-04-25 17:27 | 34.19517 | -119.60008 | 3000 ft | 263 kts | 91° |
| 2026-04-25 17:27 | 34.19482 | -119.57795 | 3000 ft | 263 kts | 91° |
| 2026-04-25 17:27 | 34.19447 | -119.55584 | 3000 ft | 263 kts | 91° |
| 2026-04-25 17:27 | 34.19435 | -119.54839 | 3000 ft | 263 kts | 91° |
| 2026-04-25 17:28 | 34.19375 | -119.51163 | 3000 ft | 263 kts | 91° |
| 2026-04-25 17:28 | 34.19339 | -119.48957 | 3000 ft | 263 kts | 91° |
| 2026-04-25 17:28 | 34.19302 | -119.46742 | 3000 ft | 263 kts | 91° |
| 2026-04-25 17:28 | 34.19264 | -119.44533 | 3000 ft | 263 kts | 91° |
| 2026-04-25 17:29 | 34.19227 | -119.42324 | 3000 ft | 263 kts | 91° |
| 2026-04-25 17:29 | 34.19188 | -119.40110 | 3000 ft | 263 kts | 91° |
| 2026-04-25 17:29 | 34.19150 | -119.37902 | 3000 ft | 263 kts | 91° |
| 2026-04-25 17:29 | 34.19112 | -119.35687 | 3000 ft | 263 kts | 91° |
| 2026-04-25 17:30 | 34.19076 | -119.33480 | 3000 ft | 263 kts | 91° |
| 2026-04-25 17:30 | 34.19041 | -119.31268 | 3000 ft | 263 kts | 91° |
| 2026-04-25 17:30 | 34.19005 | -119.29060 | 3000 ft | 263 kts | 91° |
| 2026-04-25 17:30 | 34.18981 | -119.27591 | 3000 ft | 263 kts | 91° |
| 2026-04-25 17:31 | 34.18932 | -119.24639 | 3000 ft | 263 kts | 91° |
| 2026-04-25 17:31 | 34.18895 | -119.22459 | 2998 ft | 263 kts | 91° |
| 2026-04-25 17:31 | 34.18857 | -119.20249 | 3000 ft | 263 kts | 91° |
| 2026-04-25 17:31 | 34.18819 | -119.18036 | 3000 ft | 263 kts | 91° |
| 2026-04-25 17:32 | 34.18781 | -119.15828 | 3127 ft | 261 kts | 91° |
| 2026-04-25 17:32 | 34.18743 | -119.13625 | 3750 ft | 265 kts | 91° |
| 2026-04-25 17:32 | 34.18705 | -119.11394 | 4614 ft | 266 kts | 91° |
| 2026-04-25 17:32 | 34.18664 | -119.09152 | 5500 ft | 268 kts | 91° |
| 2026-04-25 17:33 | 34.18621 | -119.07658 | 6046 ft | 270 kts | 95° |
| 2026-04-25 17:33 | 34.18008 | -119.04698 | 6809 ft | 275 kts | 112° |
| 2026-04-25 17:33 | 34.17498 | -119.03297 | 6954 ft | 276 kts | 115° |
| 2026-04-25 17:33 | 34.16396 | -119.00516 | 7000 ft | 278 kts | 116° |
| 2026-04-25 17:34 | 34.15551 | -118.98404 | 6997 ft | 279 kts | 116° |
| 2026-04-25 17:34 | 34.14713 | -118.96293 | 7001 ft | 280 kts | 116° |
| 2026-04-25 17:34 | 34.13876 | -118.94172 | 7002 ft | 280 kts | 115° |
| 2026-04-25 17:34 | 34.13041 | -118.92050 | 6998 ft | 280 kts | 115° |
| 2026-04-25 17:35 | 34.12207 | -118.89924 | 7004 ft | 281 kts | 115° |
| 2026-04-25 17:35 | 34.11654 | -118.88513 | 6998 ft | 281 kts | 115° |
| 2026-04-25 17:35 | 34.10820 | -118.86387 | 6997 ft | 280 kts | 115° |
| 2026-04-25 17:35 | 34.09987 | -118.84263 | 6998 ft | 280 kts | 115° |
| 2026-04-25 17:36 | 34.08882 | -118.81447 | 6996 ft | 280 kts | 115° |
| 2026-04-25 17:36 | 34.08046 | -118.79319 | 6997 ft | 281 kts | 115° |
| 2026-04-25 17:36 | 34.07211 | -118.77196 | 7003 ft | 281 kts | 115° |
| 2026-04-25 17:36 | 34.06656 | -118.75785 | 7002 ft | 281 kts | 115° |
| 2026-04-25 17:37 | 34.05822 | -118.73659 | 7001 ft | 280 kts | 115° |
| 2026-04-25 17:37 | 34.04991 | -118.71538 | 7001 ft | 280 kts | 115° |
| 2026-04-25 17:37 | 34.04159 | -118.69419 | 7001 ft | 279 kts | 115° |
| 2026-04-25 17:37 | 34.03360 | -118.67287 | 6995 ft | 279 kts | 111° |
| 2026-04-25 17:38 | 34.02857 | -118.65034 | 7004 ft | 278 kts | 99° |
| 2026-04-25 17:38 | 34.02672 | -118.63504 | 7000 ft | 278 kts | 97° |
| 2026-04-25 17:38 | 34.02379 | -118.60404 | 6999 ft | 279 kts | 96° |
| 2026-04-25 17:38 | 34.02169 | -118.58082 | 7000 ft | 279 kts | 96° |
| 2026-04-25 17:39 | 34.01959 | -118.55790 | 6997 ft | 279 kts | 96° |
| 2026-04-25 17:39 | 34.01744 | -118.53465 | 6999 ft | 279 kts | 96° |
| 2026-04-25 17:39 | 34.01525 | -118.51114 | 6996 ft | 279 kts | 96° |
| 2026-04-25 17:39 | 34.01310 | -118.48823 | 6996 ft | 279 kts | 96° |
| 2026-04-25 17:40 | 34.01133 | -118.46505 | 6998 ft | 279 kts | 91° |
| 2026-04-25 17:40 | 34.01288 | -118.44174 | 6998 ft | 278 kts | 81° |
| 2026-04-25 17:40 | 34.01650 | -118.41883 | 7000 ft | 279 kts | 78° |
| 2026-04-25 17:40 | 34.02050 | -118.39597 | 7005 ft | 279 kts | 78° |
| 2026-04-25 17:41 | 34.02450 | -118.37322 | 6996 ft | 279 kts | 78° |
| 2026-04-25 17:41 | 34.02782 | -118.35006 | 7000 ft | 279 kts | 82° |
| 2026-04-25 17:41 | 34.03039 | -118.32689 | 6997 ft | 279 kts | 83° |
| 2026-04-25 17:41 | 34.03280 | -118.30373 | 7004 ft | 279 kts | 82° |
| 2026-04-25 17:42 | 34.03533 | -118.28061 | 7000 ft | 279 kts | 82° |
| 2026-04-25 17:42 | 34.03789 | -118.25768 | 6996 ft | 279 kts | 82° |
| 2026-04-25 17:42 | 34.04048 | -118.23452 | 6995 ft | 279 kts | 82° |
| 2026-04-25 17:42 | 34.04308 | -118.21135 | 6995 ft | 279 kts | 82° |
| 2026-04-25 17:43 | 34.04566 | -118.18817 | 6997 ft | 279 kts | 82° |
| 2026-04-25 17:43 | 34.04825 | -118.16496 | 6997 ft | 279 kts | 82° |
| 2026-04-25 17:43 | 34.05084 | -118.14177 | 7000 ft | 279 kts | 82° |
| 2026-04-25 17:43 | 34.05341 | -118.11857 | 6997 ft | 279 kts | 82° |
| 2026-04-25 17:44 | 34.05599 | -118.09536 | 6998 ft | 279 kts | 82° |
| 2026-04-25 17:44 | 34.05856 | -118.07214 | 7002 ft | 279 kts | 82° |
| 2026-04-25 17:44 | 34.06112 | -118.04897 | 6999 ft | 279 kts | 82° |
| 2026-04-25 17:44 | 34.06364 | -118.02609 | 6997 ft | 279 kts | 82° |
| 2026-04-25 17:45 | 34.06620 | -118.00291 | 7003 ft | 279 kts | 82° |
| 2026-04-25 17:45 | 34.06793 | -117.98719 | 7000 ft | 279 kts | 82° |
| 2026-04-25 17:45 | 34.07130 | -117.95650 | 6996 ft | 279 kts | 82° |
| 2026-04-25 17:45 | 34.07385 | -117.93328 | 7001 ft | 279 kts | 82° |
| 2026-04-25 17:46 | 34.07639 | -117.91006 | 7002 ft | 279 kts | 82° |
| 2026-04-25 17:46 | 34.07892 | -117.88686 | 6997 ft | 279 kts | 82° |
| 2026-04-25 17:46 | 34.08145 | -117.86364 | 6999 ft | 279 kts | 82° |
| 2026-04-25 17:46 | 34.08398 | -117.84042 | 6999 ft | 279 kts | 82° |
| 2026-04-25 17:47 | 34.08648 | -117.81749 | 7001 ft | 279 kts | 82° |
| 2026-04-25 17:47 | 34.08899 | -117.79426 | 6994 ft | 280 kts | 82° |
| 2026-04-25 17:47 | 34.09151 | -117.77098 | 6999 ft | 280 kts | 82° |
| 2026-04-25 17:47 | 34.09220 | -117.74765 | 7000 ft | 279 kts | 96° |
| 2026-04-25 17:48 | 34.07524 | -117.70709 | 6995 ft | 277 kts | 143° |
| 2026-04-25 17:48 | 34.05801 | -117.69728 | 6785 ft | 275 kts | 171° |
| 2026-04-25 17:48 | 34.03912 | -117.69835 | 6538 ft | 273 kts | 198° |
| 2026-04-25 17:49 | 34.02303 | -117.70942 | 6288 ft | 268 kts | 224° |
| 2026-04-25 17:49 | 34.01264 | -117.72749 | 6039 ft | 259 kts | 249° |
| 2026-04-25 17:49 | 34.00875 | -117.74790 | 5796 ft | 250 kts | 263° |
| 2026-04-25 17:49 | 34.00711 | -117.76848 | 5551 ft | 243 kts | 265° |
| 2026-04-25 17:50 | 34.00577 | -117.78844 | 5308 ft | 235 kts | 265° |
| 2026-04-25 17:50 | 34.00441 | -117.80759 | 5116 ft | 223 kts | 265° |
| 2026-04-25 17:50 | 34.00308 | -117.82543 | 5018 ft | 205 kts | 265° |
| 2026-04-25 17:50 | 34.00174 | -117.84280 | 5000 ft | 204 kts | 264° |
| 2026-04-25 17:51 | 34.00041 | -117.85946 | 5001 ft | 197 kts | 264° |
| 2026-04-25 17:51 | 33.99908 | -117.87581 | 5001 ft | 196 kts | 264° |
| 2026-04-25 17:51 | 33.99773 | -117.89212 | 5000 ft | 196 kts | 264° |
| 2026-04-25 17:51 | 33.99638 | -117.90820 | 5000 ft | 195 kts | 264° |
| 2026-04-25 17:52 | 33.99501 | -117.92450 | 5001 ft | 195 kts | 264° |
| 2026-04-25 17:52 | 33.99409 | -117.93534 | 5002 ft | 195 kts | 264° |
| 2026-04-25 17:52 | 33.99224 | -117.95706 | 4998 ft | 195 kts | 264° |
| 2026-04-25 17:52 | 33.99084 | -117.97331 | 5001 ft | 196 kts | 264° |
| 2026-04-25 17:53 | 33.98945 | -117.98965 | 5002 ft | 196 kts | 264° |
| 2026-04-25 17:53 | 33.98810 | -118.00541 | 4999 ft | 196 kts | 264° |
| 2026-04-25 17:53 | 33.98673 | -118.02172 | 5028 ft | 195 kts | 264° |
| 2026-04-25 17:53 | 33.98536 | -118.03778 | 4968 ft | 189 kts | 263° |
| 2026-04-25 17:54 | 33.98401 | -118.05339 | 4630 ft | 187 kts | 263° |
| 2026-04-25 17:54 | 33.98266 | -118.06912 | 4166 ft | 190 kts | 261° |
| 2026-04-25 17:54 | 33.98126 | -118.08525 | 3624 ft | 197 kts | 260° |
| 2026-04-25 17:54 | 33.97981 | -118.10177 | 3232 ft | 198 kts | 260° |
| 2026-04-25 17:55 | 33.97839 | -118.11816 | 3017 ft | 195 kts | 261° |
| 2026-04-25 17:55 | 33.97699 | -118.13435 | 2995 ft | 194 kts | 259° |
| 2026-04-25 17:55 | 33.97559 | -118.15049 | 2997 ft | 193 kts | 260° |
| 2026-04-25 17:55 | 33.97418 | -118.16655 | 2991 ft | 193 kts | 261° |
| 2026-04-25 17:56 | 33.97278 | -118.18258 | 2987 ft | 193 kts | 261° |
| 2026-04-25 17:56 | 33.97140 | -118.19842 | 2999 ft | 193 kts | 260° |
| 2026-04-25 17:56 | 33.97000 | -118.21451 | 2997 ft | 193 kts | 260° |
| 2026-04-25 17:56 | 33.96856 | -118.23083 | 3004 ft | 194 kts | 262° |
| 2026-04-25 17:57 | 33.96714 | -118.24696 | 2999 ft | 194 kts | 261° |
| 2026-04-25 17:57 | 33.96576 | -118.26280 | 2992 ft | 193 kts | 259° |
| 2026-04-25 17:57 | 33.96431 | -118.27922 | 2999 ft | 194 kts | 260° |
| 2026-04-25 17:57 | 33.96336 | -118.28991 | 3005 ft | 194 kts | 259° |
| 2026-04-25 17:58 | 33.96132 | -118.31113 | 2995 ft | 193 kts | 259° |
| 2026-04-25 17:58 | 33.95973 | -118.32709 | 3255 ft | 185 kts | 259° |
| 2026-04-25 17:58 | 33.95817 | -118.34294 | 3375 ft | 197 kts | 260° |
| 2026-04-25 17:58 | 33.95658 | -118.35967 | 3177 ft | 203 kts | 261° |
| 2026-04-25 17:59 | 33.95515 | -118.37567 | 2702 ft | 191 kts | 262° |
| 2026-04-25 17:59 | 33.95726 | -118.39219 | 1731 ft | 205 kts | 301° |
| 2026-04-25 17:59 | 33.96845 | -118.39956 | 1621 ft | 175 kts | 1° |
| 2026-04-25 17:59 | 33.97794 | -118.39300 | 1538 ft | 175 kts | 59° |
| 2026-04-25 18:00 | 33.98258 | -118.37804 | 1630 ft | 198 kts | 73° |
| 2026-04-25 18:00 | 33.98778 | -118.36403 | 1605 ft | 170 kts | 65° |
| 2026-04-25 18:00 | 33.99276 | -118.35211 | 1557 ft | 160 kts | 68° |
| 2026-04-25 18:00 | 33.99802 | -118.33844 | 1748 ft | 196 kts | 69° |
| 2026-04-25 18:01 | 34.00352 | -118.32305 | 1951 ft | 189 kts | 69° |
| 2026-04-25 18:01 | 34.00816 | -118.30963 | 1980 ft | 158 kts | 70° |
| 2026-04-25 18:01 | 34.01197 | -118.29817 | 1886 ft | 137 kts | 72° |
| 2026-04-25 18:01 | 34.01502 | -118.28692 | 1849 ft | 154 kts | 81° |
| 2026-04-25 18:02 | 34.01585 | -118.27480 | 1826 ft | 138 kts | 91° |
| 2026-04-25 18:02 | 34.01647 | -118.26387 | 1773 ft | 128 kts | 94° |
| 2026-04-25 18:02 | 34.01593 | -118.25120 | 1971 ft | 173 kts | 98° |
| 2026-04-25 18:02 | 34.01425 | -118.23570 | 2304 ft | 199 kts | 102° |
| 2026-04-25 18:03 | 34.01157 | -118.21974 | 2562 ft | 177 kts | 107° |
| 2026-04-25 18:03 | 34.00854 | -118.20645 | 2674 ft | 155 kts | 110° |
| 2026-04-25 18:03 | 34.00405 | -118.19545 | 2656 ft | 140 kts | 142° |
| 2026-04-25 18:03 | 33.99526 | -118.19359 | 2549 ft | 133 kts | 187° |
| 2026-04-25 18:04 | 33.98587 | -118.19594 | 2349 ft | 144 kts | 197° |
| 2026-04-25 18:04 | 33.97683 | -118.20189 | 2129 ft | 153 kts | 219° |
| 2026-04-25 18:04 | 33.97013 | -118.21209 | 1920 ft | 159 kts | 239° |
| 2026-04-25 18:04 | 33.96705 | -118.22508 | 1714 ft | 165 kts | 261° |
| 2026-04-25 18:05 | 33.96715 | -118.23873 | 1616 ft | 163 kts | 268° |
| 2026-04-25 18:05 | 33.96789 | -118.25207 | 1546 ft | 158 kts | 270° |
| 2026-04-25 18:05 | 33.96837 | -118.26516 | 1489 ft | 156 kts | 265° |
| 2026-04-25 18:05 | 33.96695 | -118.27790 | 1433 ft | 153 kts | 253° |
| 2026-04-25 18:06 | 33.96495 | -118.29206 | 1394 ft | 190 kts | 257° |
| 2026-04-25 18:06 | 33.96302 | -118.30834 | 1311 ft | 189 kts | 261° |
| 2026-04-25 18:06 | 33.96159 | -118.32315 | 1174 ft | 169 kts | 259° |
| 2026-04-25 18:06 | 33.96009 | -118.33668 | 988 ft | 157 kts | 258° |
| 2026-04-25 18:07 | 33.95829 | -118.34921 | 792 ft | 152 kts | 259° |
| 2026-04-25 18:07 | 33.95653 | -118.36195 | 641 ft | 156 kts | 259° |
| 2026-04-25 18:07 | 33.95534 | -118.37508 | 523 ft | 163 kts | 258° |
| 2026-04-25 18:07 | 33.95369 | -118.38852 | 333 ft | 158 kts | 258° |
| 2026-04-25 18:08 | 33.95228 | -118.40108 | 170 ft | 145 kts | 260° |
| 2026-04-25 18:08 | 33.95109 | -118.41240 | 126 ft | 125 kts | 259° |
| 2026-04-25 18:08 | 33.95000 | -118.42139 | 128 ft | 93 kts | 262° |
| 2026-04-25 18:08 | 33.94944 | -118.42528 | 125 ft | 8 kts | 243° |
| 2026-04-25 18:09 | 33.94942 | -118.42534 | 127 ft | 1 kts | 243° |
| 2026-04-25 18:09 | 33.94932 | -118.42558 | 127 ft | 5 kts | 243° |
| 2026-04-25 18:09 | 33.94907 | -118.42606 | 127 ft | 9 kts | 235° |
| 2026-04-25 18:09 | 33.94876 | -118.42655 | 124 ft | 12 kts | 232° |
| 2026-04-25 18:10 | 33.94771 | -118.42756 | 125 ft | 17 kts | 206° |
| 2026-04-25 18:10 | 33.94659 | -118.42777 | 126 ft | 15 kts | 152° |
| 2026-04-25 18:10 | 33.94638 | -118.42667 | 129 ft | 16 kts | 83° |
| 2026-04-25 18:10 | 33.94653 | -118.42517 | 129 ft | 20 kts | 83° |
| 2026-04-25 18:11 | 33.94671 | -118.42330 | 128 ft | 25 kts | 83° |
| 2026-04-25 18:11 | 33.94694 | -118.42111 | 127 ft | 28 kts | 82° |
| 2026-04-25 18:11 | 33.94709 | -118.41887 | 129 ft | 22 kts | 103° |
| 2026-04-25 18:11 | 33.94648 | -118.41749 | 128 ft | 19 kts | 92° |
| 2026-04-25 18:12 | 33.94665 | -118.41584 | 126 ft | 21 kts | 84° |
| 2026-04-25 18:12 | 33.94675 | -118.41404 | 127 ft | 18 kts | 108° |
| 2026-04-25 18:12 | 33.94660 | -118.41377 | 123 ft | 1 kts | 151° |
| 2026-04-25 18:12 | 33.94636 | -118.41372 | 126 ft | 6 kts | 171° |
| 2026-04-25 18:13 | 33.94577 | -118.41361 | 126 ft | 12 kts | 173° |
| 2026-04-25 18:13 | 33.94458 | -118.41346 | 126 ft | 22 kts | 175° |
| 2026-04-25 18:13 | 33.94283 | -118.41301 | 126 ft | 29 kts | 144° |
| 2026-04-25 18:14 | 33.93977 | -118.41181 | 126 ft | 31 kts | 172° |
| 2026-04-25 18:14 | 33.93834 | -118.41093 | 127 ft | 21 kts | 89° |
| 2026-04-25 18:14 | 33.93868 | -118.40915 | 125 ft | 25 kts | 84° |
| 2026-04-25 18:14 | 33.93888 | -118.40706 | 129 ft | 25 kts | 83° |
| 2026-04-25 18:15 | 33.93924 | -118.40549 | 129 ft | 15 kts | 29° |
| 2026-04-25 18:15 | 33.94024 | -118.40552 | 126 ft | 7 kts | 352° |
| 2026-04-25 18:15 | 33.94026 | -118.40552 | 126 ft | 0 kts | 352° |
| 2026-04-25 18:16 | 33.94040 | -118.40552 | 126 ft | 7 kts | 3° |
| 2026-04-25 18:16 | 33.94062 | -118.40521 | 129 ft | 3 kts | 87° |
| 2026-04-25 18:16 | 33.94063 | -118.40506 | 129 ft | 0 kts | 82° |